| time (UTC) | temp C | wind direction | speed KPH | gust KPH | rain 1hr cm | rain 24hr cm | rain mn cm | humidity % | barometer mb |
| 20260509032624 | 11 | 0 | 0.0 | 0.0 | 0.00 | 0.00 | 0.00 | 54 | 1007.1 |
| 20260509032403 | 11 | 0 | 0.0 | 0.0 | 0.00 | 0.00 | 0.00 | 55 | 1007.2 |
| 20260509032203 | 11 | 0 | 0.0 | 0.0 | 0.00 | 0.00 | 0.00 | 54 | 1007.2 |
| 20260509032003 | 11 | 0 | 0.0 | 0.0 | 0.00 | 0.00 | 0.00 | 53 | 1007.2 |
| 20260509031803 | 11 | 0 | 0.0 | 0.0 | 0.00 | 0.00 | 0.00 | 51 | 1007.2 |
| 20260509031624 | 11 | 0 | 0.0 | 0.0 | 0.00 | 0.00 | 0.00 | 49 | 1007.2 |
| 20260509031403 | 11 | 0 | 0.0 | 0.0 | 0.00 | 0.00 | 0.00 | 49 | 1007.3 |
| 20260509031203 | 11 | 0 | 0.0 | 0.0 | 0.00 | 0.00 | 0.00 | 50 | 1007.3 |
| 20260509031024 | 11 | 302 | 0.0 | 1.6 | 0.00 | 0.00 | 0.00 | 51 | 1007.3 |
| 20260509030803 | 11 | 302 | 0.0 | 1.6 | 0.00 | 0.00 | 0.00 | 51 | 1007.3 |
| 20260509030603 | 11 | 302 | 0.0 | 1.6 | 0.00 | 0.00 | 0.00 | 51 | 1007.4 |
| 20260509030424 | 11 | 302 | 0.0 | 1.6 | 0.00 | 0.00 | 0.00 | 52 | 1007.4 |
| 20260509030203 | 10 | 302 | 0.0 | 1.6 | 0.00 | 0.00 | 0.00 | 53 | 1007.4 |
| 20260509030003 | 10 | 0 | 0.0 | 0.0 | 0.00 | 0.00 | 0.00 | 49 | 1007.4 |
| 20260509025803 | 11 | 0 | 0.0 | 0.0 | 0.00 | 0.00 | 0.00 | 51 | 1007.4 |
| 20260509025603 | 11 | 0 | 0.0 | 0.0 | 0.00 | 0.00 | 0.00 | 49 | 1007.3 |
| 20260509025403 | 11 | 0 | 0.0 | 0.0 | 0.00 | 0.00 | 0.00 | 49 | 1007.4 |
| 20260509025203 | 11 | 0 | 0.0 | 0.0 | 0.00 | 0.00 | 0.00 | 51 | 1007.4 |
| 20260509025003 | 11 | 0 | 0.0 | 0.0 | 0.00 | 0.00 | 0.00 | 54 | 1007.4 |
| 20260509024803 | 11 | 0 | 0.0 | 0.0 | 0.00 | 0.00 | 0.00 | 53 | 1007.4 |
| 20260509024603 | 11 | 0 | 0.0 | 0.0 | 0.00 | 0.00 | 0.00 | 51 | 1007.4 |
| 20260509024403 | 11 | 0 | 0.0 | 0.0 | 0.00 | 0.00 | 0.00 | 51 | 1007.4 |
| 20260509024203 | 11 | 0 | 0.0 | 0.0 | 0.00 | 0.00 | 0.00 | 50 | 1007.5 |
| 20260509024003 | 11 | 0 | 0.0 | 0.0 | 0.00 | 0.00 | 0.00 | 51 | 1007.5 |
| 20260509023803 | 11 | 0 | 0.0 | 0.0 | 0.00 | 0.00 | 0.00 | 49 | 1007.5 |
| 20260509023603 | 11 | 0 | 0.0 | 0.0 | 0.00 | 0.00 | 0.00 | 47 | 1007.5 |
| 20260509023424 | 11 | 302 | 0.0 | 1.6 | 0.00 | 0.00 | 0.00 | 49 | 1007.6 |
| 20260509023203 | 11 | 302 | 0.0 | 1.6 | 0.00 | 0.00 | 0.00 | 49 | 1007.6 |
| 20260509023024 | 11 | 302 | 0.0 | 1.6 | 0.00 | 0.00 | 0.00 | 50 | 1007.6 |
| 20260509022824 | 11 | 302 | 0.0 | 3.2 | 0.00 | 0.00 | 0.00 | 47 | 1007.6 |
| 20260509022603 | 11 | 302 | 0.0 | 3.2 | 0.00 | 0.00 | 0.00 | 46 | 1007.7 |
| 20260509022424 | 11 | 302 | 0.0 | 3.2 | 0.00 | 0.00 | 0.00 | 43 | 1007.6 |
| 20260509022203 | 12 | 302 | 0.0 | 3.2 | 0.00 | 0.00 | 0.00 | 45 | 1007.6 |
| 20260509022003 | 12 | 302 | 0.0 | 3.2 | 0.00 | 0.00 | 0.00 | 47 | 1007.6 |
| 20260509021803 | 12 | 302 | 0.0 | 3.2 | 0.00 | 0.00 | 0.00 | 43 | 1007.6 |
| 20260509021603 | 12 | 301 | 0.0 | 4.8 | 0.00 | 0.00 | 0.00 | 44 | 1007.6 |
| 20260509021403 | 12 | 301 | 0.0 | 4.8 | 0.00 | 0.00 | 0.00 | 45 | 1007.6 |
| 20260509021203 | 12 | 268 | 0.0 | 4.8 | 0.00 | 0.00 | 0.00 | 41 | 1007.7 |
| 20260509021003 | 12 | 267 | 0.0 | 4.8 | 0.00 | 0.00 | 0.00 | 41 | 1007.7 |
| 20260509020803 | 12 | 263 | 0.0 | 4.8 | 0.00 | 0.00 | 0.00 | 44 | 1007.7 |
| 20260509020603 | 12 | 186 | 0.0 | 1.6 | 0.00 | 0.00 | 0.00 | 43 | 1007.6 |
| 20260509020403 | 12 | 186 | 0.0 | 1.6 | 0.00 | 0.00 | 0.00 | 44 | 1007.7 |
| 20260509020203 | 13 | 186 | 0.0 | 1.6 | 0.00 | 0.00 | 0.00 | 40 | 1007.6 |
| 20260509020003 | 13 | 186 | 0.0 | 1.6 | 0.00 | 0.00 | 0.00 | 42 | 1007.6 |
| 20260509015803 | 13 | 186 | 0.0 | 1.6 | 0.00 | 0.00 | 0.00 | 42 | 1007.6 |
| 20260509015603 | 13 | 0 | 0.0 | 0.0 | 0.00 | 0.00 | 0.00 | 42 | 1007.6 |
| 20260509015403 | 13 | 186 | 0.0 | 1.6 | 0.00 | 0.00 | 0.00 | 40 | 1007.6 |
| 20260509015203 | 13 | 186 | 0.0 | 1.6 | 0.00 | 0.00 | 0.00 | 40 | 1007.5 |
| 20260509015003 | 13 | 186 | 0.0 | 1.6 | 0.00 | 0.00 | 0.00 | 37 | 1007.6 |
| 20260509014803 | 13 | 186 | 0.0 | 1.6 | 0.00 | 0.00 | 0.00 | 37 | 1007.6 |
| 20260509014403 | 14 | 177 | 0.0 | 6.4 | 0.00 | 0.00 | 0.00 | 35 | 1007.5 |
| 20260509014203 | 14 | 177 | 0.0 | 6.4 | 0.00 | 0.00 | 0.00 | 34 | 1007.5 |
| 20260509014024 | 14 | 177 | 0.0 | 6.4 | 0.00 | 0.00 | 0.00 | 31 | 1007.5 |
| 20260509013803 | 14 | 177 | 0.0 | 6.4 | 0.00 | 0.00 | 0.00 | 22 | 1007.5 |
| 20260509013603 | 14 | 175 | 0.0 | 6.4 | 0.00 | 0.00 | 0.00 | 23 | 1007.5 |
| 20260509013403 | 14 | 0 | 0.0 | 0.0 | 0.00 | 0.00 | 0.00 | 29 | 1007.4 |
| 20260509013203 | 14 | 0 | 0.0 | 0.0 | 0.00 | 0.00 | 0.00 | 30 | 1007.5 |
| 20260509013024 | 14 | 0 | 0.0 | 0.0 | 0.00 | 0.00 | 0.00 | 29 | 1007.4 |
| 20260509012803 | 14 | 0 | 0.0 | 0.0 | 0.00 | 0.00 | 0.00 | 30 | 1007.4 |
| 20260509012603 | 14 | 0 | 0.0 | 0.0 | 0.00 | 0.00 | 0.00 | 30 | 1007.4 |
| 20260509012403 | 15 | 0 | 0.0 | 0.0 | 0.00 | 0.00 | 0.00 | 31 | 1007.4 |
| 20260509012203 | 15 | 0 | 0.0 | 0.0 | 0.00 | 0.00 | 0.00 | 31 | 1007.4 |
| 20260509012003 | 15 | 0 | 0.0 | 0.0 | 0.00 | 0.00 | 0.00 | 30 | 1007.4 |
| 20260509011803 | 15 | 0 | 0.0 | 0.0 | 0.00 | 0.00 | 0.00 | 34 | 1007.4 |
| 20260509011624 | 15 | 0 | 0.0 | 0.0 | 0.00 | 0.00 | 0.00 | 34 | 1007.4 |
| 20260509011403 | 15 | 0 | 0.0 | 0.0 | 0.00 | 0.00 | 0.00 | 37 | 1007.4 |
| 20260509011203 | 15 | 0 | 0.0 | 0.0 | 0.00 | 0.00 | 0.00 | 37 | 1007.3 |
| 20260509011024 | 15 | 0 | 0.0 | 0.0 | 0.00 | 0.00 | 0.00 | 35 | 1007.3 |
| 20260509010824 | 15 | 0 | 0.0 | 0.0 | 0.00 | 0.00 | 0.00 | 36 | 1007.2 |
| 20260509010603 | 15 | 0 | 0.0 | 0.0 | 0.00 | 0.00 | 0.00 | 34 | 1007.2 |
| 20260509010403 | 15 | 0 | 0.0 | 0.0 | 0.00 | 0.00 | 0.00 | 30 | 1007.1 |
| 20260509010203 | 15 | 0 | 0.0 | 0.0 | 0.00 | 0.00 | 0.00 | 33 | 1007.1 |
| 20260509010004 | 15 | 0 | 0.0 | 0.0 | 0.00 | 0.00 | 0.00 | 29 | 1007.1 |
| 20260509005803 | 15 | 0 | 0.0 | 0.0 | 0.00 | 0.00 | 0.00 | 30 | 1007.1 |
| 20260509005603 | 15 | 0 | 0.0 | 0.0 | 0.00 | 0.00 | 0.00 | 30 | 1007.1 |
| 20260509005403 | 15 | 86 | 0.0 | 4.8 | 0.00 | 0.00 | 0.00 | 31 | 1007.0 |
| 20260509005203 | 15 | 87 | 1.6 | 4.8 | 0.00 | 0.00 | 0.00 | 28 | 1007.0 |
| 20260509005003 | 15 | 89 | 1.6 | 4.8 | 0.00 | 0.00 | 0.00 | 31 | 1007.0 |
| 20260509004824 | 15 | 89 | 1.6 | 6.4 | 0.00 | 0.00 | 0.00 | 31 | 1007.0 |
| 20260509004603 | 15 | 87 | 3.2 | 6.4 | 0.00 | 0.00 | 0.00 | 32 | 1007.0 |
| 20260509004403 | 15 | 87 | 3.2 | 9.7 | 0.00 | 0.00 | 0.00 | 27 | 1007.1 |
| 20260509004224 | 15 | 86 | 3.2 | 9.7 | 0.00 | 0.00 | 0.00 | 26 | 1007.0 |
| 20260509004024 | 15 | 79 | 1.6 | 9.7 | 0.00 | 0.00 | 0.00 | 26 | 1007.1 |
| 20260509003803 | 16 | 55 | 1.6 | 9.7 | 0.00 | 0.00 | 0.00 | 32 | 1007.0 |
| 20260509003603 | 16 | 52 | 1.6 | 9.7 | 0.00 | 0.00 | 0.00 | 32 | 1007.0 |
| 20260509003403 | 16 | 41 | 1.6 | 9.7 | 0.00 | 0.00 | 0.00 | 33 | 1007.0 |
| 20260509003203 | 16 | 37 | 1.6 | 12.9 | 0.00 | 0.00 | 0.00 | 36 | 1006.9 |
| 20260509003003 | 16 | 57 | 3.2 | 12.9 | 0.00 | 0.00 | 0.00 | 32 | 1006.8 |
| 20260509002803 | 16 | 60 | 3.2 | 12.9 | 0.00 | 0.00 | 0.00 | 32 | 1006.8 |
| 20260509002603 | 16 | 64 | 3.2 | 12.9 | 0.00 | 0.00 | 0.00 | 30 | 1006.9 |
| 20260509002403 | 16 | 70 | 3.2 | 12.9 | 0.00 | 0.00 | 0.00 | 29 | 1006.9 |
| 20260509002203 | 16 | 79 | 1.6 | 11.3 | 0.00 | 0.00 | 0.00 | 32 | 1006.9 |
| 20260509002003 | 16 | 64 | 1.6 | 6.4 | 0.00 | 0.00 | 0.00 | 43 | 1006.8 |
| 20260509001803 | 16 | 336 | 1.6 | 4.8 | 0.00 | 0.00 | 0.00 | 50 | 1006.9 |
| 20260509001603 | 16 | 305 | 1.6 | 6.4 | 0.00 | 0.00 | 0.00 | 50 | 1006.9 |
| 20260509001403 | 16 | 301 | 3.2 | 6.4 | 0.00 | 0.00 | 0.00 | 50 | 1006.9 |
| 20260509001203 | 16 | 300 | 3.2 | 6.4 | 0.00 | 0.00 | 0.00 | 49 | 1006.8 |
| 20260509001024 | 16 | 300 | 4.8 | 6.4 | 0.00 | 0.00 | 0.00 | 49 | 1006.9 |
| 20260509000803 | 16 | 299 | 4.8 | 9.7 | 0.00 | 0.00 | 0.00 | 48 | 1006.8 |
| 20260509000624 | 16 | 300 | 4.8 | 9.7 | 0.00 | 0.00 | 0.00 | 49 | 1006.8 |
| 20260509000403 | 16 | 302 | 6.4 | 9.7 | 0.00 | 0.00 | 0.00 | 48 | 1006.8 |
| 20260509000204 | 16 | 303 | 6.4 | 9.7 | 0.00 | 0.00 | 0.00 | 48 | 1006.7 |
| 20260509000003 | 16 | 304 | 6.4 | 9.7 | 0.00 | 0.00 | 0.00 | 47 | 1006.7 |
| 20260508235803 | 16 | 305 | 6.4 | 8.0 | 0.00 | 0.00 | 0.00 | 47 | 1006.7 |
| 20260508235624 | 16 | 304 | 6.4 | 8.0 | 0.00 | 0.00 | 0.00 | 47 | 1006.7 |
| 20260508235403 | 16 | 303 | 4.8 | 8.0 | 0.00 | 0.00 | 0.00 | 46 | 1006.7 |
| 20260508235224 | 16 | 303 | 4.8 | 6.4 | 0.00 | 0.00 | 0.00 | 46 | 1006.7 |
| 20260508235003 | 16 | 303 | 4.8 | 11.3 | 0.00 | 0.00 | 0.00 | 46 | 1006.7 |
| 20260508234824 | 16 | 303 | 4.8 | 11.3 | 0.00 | 0.00 | 0.00 | 46 | 1006.8 |
| 20260508234603 | 17 | 305 | 4.8 | 11.3 | 0.00 | 0.00 | 0.00 | 45 | 1006.8 |
| 20260508234403 | 17 | 306 | 6.4 | 11.3 | 0.00 | 0.00 | 0.00 | 43 | 1006.8 |
| 20260508234203 | 17 | 305 | 6.4 | 11.3 | 0.00 | 0.00 | 0.00 | 42 | 1006.8 |
| 20260508234003 | 17 | 304 | 6.4 | 9.7 | 0.00 | 0.00 | 0.00 | 43 | 1006.7 |
| 20260508233803 | 17 | 307 | 6.4 | 12.9 | 0.00 | 0.00 | 0.00 | 41 | 1006.7 |
| 20260508233603 | 17 | 307 | 8.0 | 12.9 | 0.00 | 0.00 | 0.00 | 42 | 1006.7 |
| 20260508233403 | 17 | 305 | 8.0 | 12.9 | 0.00 | 0.00 | 0.00 | 42 | 1006.7 |
| 20260508233203 | 17 | 304 | 8.0 | 14.5 | 0.00 | 0.00 | 0.00 | 42 | 1006.8 |
| 20260508233003 | 17 | 306 | 8.0 | 14.5 | 0.00 | 0.00 | 0.00 | 42 | 1006.8 |
| 20260508232803 | 17 | 304 | 8.0 | 14.5 | 0.00 | 0.00 | 0.00 | 42 | 1006.7 |
| 20260508232603 | 17 | 302 | 9.7 | 14.5 | 0.00 | 0.00 | 0.00 | 41 | 1006.7 |
| 20260508232403 | 17 | 303 | 9.7 | 14.5 | 0.00 | 0.00 | 0.00 | 42 | 1006.8 |
| 20260508232224 | 17 | 304 | 9.7 | 12.9 | 0.00 | 0.00 | 0.00 | 43 | 1006.8 |
| 20260508232003 | 17 | 302 | 9.7 | 14.5 | 0.00 | 0.00 | 0.00 | 43 | 1006.8 |
| 20260508231803 | 17 | 303 | 9.7 | 14.5 | 0.00 | 0.00 | 0.00 | 42 | 1006.8 |
| 20260508231603 | 17 | 304 | 8.0 | 14.5 | 0.00 | 0.00 | 0.00 | 40 | 1006.8 |
| 20260508231403 | 18 | 309 | 8.0 | 14.5 | 0.00 | 0.00 | 0.00 | 39 | 1006.8 |
| 20260508231203 | 18 | 309 | 8.0 | 14.5 | 0.00 | 0.00 | 0.00 | 39 | 1006.8 |
| 20260508231003 | 18 | 312 | 6.4 | 12.9 | 0.00 | 0.00 | 0.00 | 33 | 1006.8 |
| 20260508230803 | 18 | 312 | 6.4 | 12.9 | 0.00 | 0.00 | 0.00 | 31 | 1006.7 |
| 20260508230603 | 18 | 312 | 6.4 | 12.9 | 0.00 | 0.00 | 0.00 | 30 | 1006.7 |
| 20260508230424 | 18 | 306 | 6.4 | 11.3 | 0.00 | 0.00 | 0.00 | 30 | 1006.7 |
| 20260508230203 | 18 | 306 | 6.4 | 11.3 | 0.00 | 0.00 | 0.00 | 29 | 1006.7 |
| 20260508230003 | 18 | 308 | 6.4 | 11.3 | 0.00 | 0.00 | 0.00 | 29 | 1006.7 |
| 20260508225803 | 18 | 307 | 8.0 | 11.3 | 0.00 | 0.00 | 0.00 | 28 | 1006.7 |
| 20260508225603 | 18 | 306 | 8.0 | 16.1 | 0.00 | 0.00 | 0.00 | 27 | 1006.8 |
| 20260508225403 | 18 | 305 | 8.0 | 16.1 | 0.00 | 0.00 | 0.00 | 28 | 1006.8 |
| 20260508225203 | 18 | 304 | 8.0 | 16.1 | 0.00 | 0.00 | 0.00 | 29 | 1006.7 |
| 20260508225024 | 18 | 301 | 8.0 | 16.1 | 0.00 | 0.00 | 0.00 | 28 | 1006.7 |
| 20260508224803 | 18 | 299 | 8.0 | 16.1 | 0.00 | 0.00 | 0.00 | 33 | 1006.7 |
| 20260508224603 | 18 | 297 | 8.0 | 14.5 | 0.00 | 0.00 | 0.00 | 32 | 1006.7 |
| 20260508224424 | 18 | 298 | 8.0 | 12.9 | 0.00 | 0.00 | 0.00 | 33 | 1006.7 |
| 20260508224203 | 18 | 299 | 8.0 | 12.9 | 0.00 | 0.00 | 0.00 | 33 | 1006.7 |
| 20260508224003 | 18 | 303 | 8.0 | 12.9 | 0.00 | 0.00 | 0.00 | 33 | 1006.7 |
| 20260508223803 | 18 | 303 | 8.0 | 14.5 | 0.00 | 0.00 | 0.00 | 32 | 1006.7 |
| 20260508223624 | 18 | 304 | 8.0 | 14.5 | 0.00 | 0.00 | 0.00 | 32 | 1006.7 |
| 20260508223403 | 18 | 309 | 6.4 | 14.5 | 0.00 | 0.00 | 0.00 | 33 | 1006.7 |
| 20260508223203 | 18 | 318 | 6.4 | 14.5 | 0.00 | 0.00 | 0.00 | 32 | 1006.7 |
| 20260508223003 | 18 | 323 | 4.8 | 14.5 | 0.00 | 0.00 | 0.00 | 35 | 1006.7 |
| 20260508222803 | 18 | 345 | 3.2 | 12.9 | 0.00 | 0.00 | 0.00 | 32 | 1006.7 |
| 20260508222603 | 18 | 2 | 3.2 | 9.7 | 0.00 | 0.00 | 0.00 | 33 | 1006.7 |
| 20260508222424 | 18 | 353 | 4.8 | 12.9 | 0.00 | 0.00 | 0.00 | 31 | 1006.7 |
| 20260508222203 | 18 | 352 | 4.8 | 12.9 | 0.00 | 0.00 | 0.00 | 31 | 1006.7 |
| 20260508222003 | 17 | 349 | 4.8 | 12.9 | 0.00 | 0.00 | 0.00 | 29 | 1006.7 |
| 20260508221824 | 17 | 345 | 4.8 | 12.9 | 0.00 | 0.00 | 0.00 | 29 | 1006.8 |
| 20260508221603 | 17 | 340 | 4.8 | 12.9 | 0.00 | 0.00 | 0.00 | 29 | 1006.8 |
| 20260508221403 | 18 | 340 | 4.8 | 14.5 | 0.00 | 0.00 | 0.00 | 29 | 1006.8 |
| 20260508221203 | 18 | 335 | 6.4 | 14.5 | 0.00 | 0.00 | 0.00 | 29 | 1006.8 |
| 20260508221003 | 18 | 339 | 6.4 | 14.5 | 0.00 | 0.00 | 0.00 | 27 | 1006.8 |
| 20260508220803 | 18 | 337 | 6.4 | 14.5 | 0.00 | 0.00 | 0.00 | 29 | 1006.8 |
| 20260508220624 | 18 | 332 | 8.0 | 14.5 | 0.00 | 0.00 | 0.00 | 27 | 1006.8 |
| 20260508220403 | 18 | 323 | 8.0 | 16.1 | 0.00 | 0.00 | 0.00 | 31 | 1006.8 |
| 20260508220203 | 19 | 315 | 8.0 | 16.1 | 0.00 | 0.00 | 0.00 | 27 | 1006.8 |
| 20260508220004 | 19 | 305 | 8.0 | 16.1 | 0.00 | 0.00 | 0.00 | 29 | 1006.8 |
| 20260508215803 | 19 | 305 | 8.0 | 16.1 | 0.00 | 0.00 | 0.00 | 29 | 1006.8 |
| 20260508215603 | 19 | 307 | 6.4 | 12.9 | 0.00 | 0.00 | 0.00 | 28 | 1006.8 |
| 20260508215403 | 19 | 315 | 6.4 | 12.9 | 0.00 | 0.00 | 0.00 | 29 | 1006.8 |
| 20260508215224 | 19 | 329 | 6.4 | 12.9 | 0.00 | 0.00 | 0.00 | 27 | 1006.8 |
| 20260508215003 | 18 | 342 | 6.4 | 12.9 | 0.00 | 0.00 | 0.00 | 29 | 1006.9 |
| 20260508214803 | 18 | 341 | 6.4 | 12.9 | 0.00 | 0.00 | 0.00 | 26 | 1006.9 |
| 20260508214603 | 18 | 349 | 6.4 | 12.9 | 0.00 | 0.00 | 0.00 | 28 | 1006.9 |
| 20260508214424 | 18 | 346 | 6.4 | 12.9 | 0.00 | 0.00 | 0.00 | 27 | 1006.9 |
| 20260508214203 | 18 | 340 | 8.0 | 12.9 | 0.00 | 0.00 | 0.00 | 25 | 1006.9 |
| 20260508214003 | 18 | 346 | 8.0 | 14.5 | 0.00 | 0.00 | 0.00 | 26 | 1006.9 |
| 20260508213824 | 18 | 352 | 6.4 | 14.5 | 0.00 | 0.00 | 0.00 | 26 | 1006.9 |
| 20260508213603 | 18 | 347 | 8.0 | 17.7 | 0.00 | 0.00 | 0.00 | 28 | 1006.9 |
| 20260508213403 | 18 | 336 | 9.7 | 17.7 | 0.00 | 0.00 | 0.00 | 28 | 1007.0 |
| 20260508213203 | 19 | 325 | 9.7 | 17.7 | 0.00 | 0.00 | 0.00 | 27 | 1007.0 |
| 20260508213003 | 19 | 313 | 9.7 | 17.7 | 0.00 | 0.00 | 0.00 | 26 | 1007.0 |
| 20260508212824 | 19 | 309 | 9.7 | 17.7 | 0.00 | 0.00 | 0.00 | 28 | 1007.0 |
| 20260508212624 | 19 | 305 | 9.7 | 17.7 | 0.00 | 0.00 | 0.00 | 27 | 1006.9 |
| 20260508212424 | 19 | 310 | 9.7 | 17.7 | 0.00 | 0.00 | 0.00 | 27 | 1007.0 |
| 20260508212203 | 19 | 327 | 8.0 | 17.7 | 0.00 | 0.00 | 0.00 | 27 | 1007.0 |
| 20260508212003 | 19 | 342 | 8.0 | 16.1 | 0.00 | 0.00 | 0.00 | 30 | 1007.0 |
| 20260508211803 | 18 | 357 | 6.4 | 16.1 | 0.00 | 0.00 | 0.00 | 30 | 1007.1 |
| 20260508211603 | 18 | 7 | 6.4 | 16.1 | 0.00 | 0.00 | 0.00 | 29 | 1007.1 |
| 20260508211403 | 18 | 10 | 4.8 | 16.1 | 0.00 | 0.00 | 0.00 | 29 | 1007.1 |
| 20260508211203 | 18 | 10 | 6.4 | 19.3 | 0.00 | 0.00 | 0.00 | 29 | 1007.2 |
| 20260508211024 | 18 | 9 | 6.4 | 19.3 | 0.00 | 0.00 | 0.00 | 27 | 1007.2 |
| 20260508210803 | 18 | 356 | 8.0 | 19.3 | 0.00 | 0.00 | 0.00 | 28 | 1007.2 |
| 20260508210603 | 18 | 358 | 8.0 | 19.3 | 0.00 | 0.00 | 0.00 | 31 | 1007.2 |
| 20260508210403 | 18 | 346 | 8.0 | 19.3 | 0.00 | 0.00 | 0.00 | 27 | 1007.2 |
| 20260508210203 | 18 | 337 | 6.4 | 16.1 | 0.00 | 0.00 | 0.00 | 29 | 1007.2 |
| 20260508210003 | 18 | 330 | 6.4 | 16.1 | 0.00 | 0.00 | 0.00 | 25 | 1007.3 |
| 20260508205803 | 18 | 331 | 6.4 | 12.9 | 0.00 | 0.00 | 0.00 | 31 | 1007.3 |
| 20260508205603 | 18 | 325 | 6.4 | 12.9 | 0.00 | 0.00 | 0.00 | 25 | 1007.3 |
| 20260508205424 | 18 | 335 | 6.4 | 12.9 | 0.00 | 0.00 | 0.00 | 26 | 1007.2 |
| 20260508205224 | 18 | 332 | 8.0 | 12.9 | 0.00 | 0.00 | 0.00 | 27 | 1007.3 |
| 20260508205003 | 18 | 325 | 8.0 | 14.5 | 0.00 | 0.00 | 0.00 | 26 | 1007.3 |
| 20260508204824 | 18 | 320 | 8.0 | 16.1 | 0.00 | 0.00 | 0.00 | 26 | 1007.3 |
| 20260508204603 | 18 | 316 | 8.0 | 16.1 | 0.00 | 0.00 | 0.00 | 27 | 1007.4 |
| 20260508204403 | 18 | 313 | 9.7 | 16.1 | 0.00 | 0.00 | 0.00 | 26 | 1007.4 |
| 20260508204203 | 18 | 310 | 9.7 | 24.1 | 0.00 | 0.00 | 0.00 | 25 | 1007.4 |
| 20260508204003 | 18 | 311 | 9.7 | 24.1 | 0.00 | 0.00 | 0.00 | 28 | 1007.4 |
| 20260508203824 | 18 | 313 | 8.0 | 24.1 | 0.00 | 0.00 | 0.00 | 26 | 1007.5 |
| 20260508203624 | 18 | 313 | 6.4 | 24.1 | 0.00 | 0.00 | 0.00 | 27 | 1007.6 |
| 20260508203403 | 18 | 319 | 4.8 | 24.1 | 0.00 | 0.00 | 0.00 | 28 | 1007.5 |
| 20260508203203 | 17 | 348 | 3.2 | 12.9 | 0.00 | 0.00 | 0.00 | 27 | 1007.5 |
| 20260508203024 | 17 | 345 | 4.8 | 14.5 | 0.00 | 0.00 | 0.00 | 32 | 1007.6 |
| 20260508202803 | 17 | 343 | 4.8 | 14.5 | 0.00 | 0.00 | 0.00 | 30 | 1007.6 |
| 20260508202603 | 17 | 345 | 6.4 | 14.5 | 0.00 | 0.00 | 0.00 | 27 | 1007.6 |
| 20260508202424 | 17 | 345 | 4.8 | 14.5 | 0.00 | 0.00 | 0.00 | 28 | 1007.7 |
| 20260508202203 | 17 | 343 | 4.8 | 14.5 | 0.00 | 0.00 | 0.00 | 28 | 1007.7 |
| 20260508202003 | 17 | 357 | 4.8 | 16.1 | 0.00 | 0.00 | 0.00 | 30 | 1007.6 |
| 20260508201803 | 18 | 347 | 4.8 | 16.1 | 0.00 | 0.00 | 0.00 | 33 | 1007.6 |
| 20260508201603 | 18 | 339 | 6.4 | 16.1 | 0.00 | 0.00 | 0.00 | 31 | 1007.6 |
| 20260508201403 | 18 | 329 | 6.4 | 16.1 | 0.00 | 0.00 | 0.00 | 27 | 1007.7 |
| 20260508201203 | 18 | 318 | 8.0 | 16.1 | 0.00 | 0.00 | 0.00 | 25 | 1007.7 |
| 20260508201003 | 18 | 316 | 8.0 | 12.9 | 0.00 | 0.00 | 0.00 | 30 | 1007.7 |
| 20260508200824 | 18 | 312 | 8.0 | 12.9 | 0.00 | 0.00 | 0.00 | 31 | 1007.7 |
| 20260508200603 | 18 | 311 | 8.0 | 12.9 | 0.00 | 0.00 | 0.00 | 28 | 1007.7 |
| 20260508200403 | 18 | 310 | 8.0 | 12.9 | 0.00 | 0.00 | 0.00 | 32 | 1007.8 |
| 20260508200203 | 18 | 316 | 6.4 | 12.9 | 0.00 | 0.00 | 0.00 | 31 | 1007.9 |
| 20260508200003 | 17 | 312 | 6.4 | 16.1 | 0.00 | 0.00 | 0.00 | 28 | 1007.9 |
| 20260508195803 | 18 | 314 | 6.4 | 16.1 | 0.00 | 0.00 | 0.00 | 26 | 1007.9 |
| 20260508195624 | 18 | 320 | 8.0 | 16.1 | 0.00 | 0.00 | 0.00 | 27 | 1008.0 |
| 20260508195403 | 18 | 337 | 8.0 | 16.1 | 0.00 | 0.00 | 0.00 | 27 | 1007.9 |
| 20260508195203 | 18 | 344 | 8.0 | 16.1 | 0.00 | 0.00 | 0.00 | 26 | 1008.0 |
| 20260508195003 | 18 | 347 | 8.0 | 14.5 | 0.00 | 0.00 | 0.00 | 28 | 1008.1 |
| 20260508194824 | 18 | 351 | 8.0 | 14.5 | 0.00 | 0.00 | 0.00 | 28 | 1008.1 |
| 20260508194603 | 18 | 352 | 8.0 | 16.1 | 0.00 | 0.00 | 0.00 | 32 | 1008.1 |
| 20260508194403 | 18 | 348 | 8.0 | 16.1 | 0.00 | 0.00 | 0.00 | 32 | 1008.1 |
| 20260508194203 | 18 | 348 | 8.0 | 16.1 | 0.00 | 0.00 | 0.00 | 28 | 1008.1 |
| 20260508194003 | 18 | 353 | 8.0 | 16.1 | 0.00 | 0.00 | 0.00 | 29 | 1008.1 |
| 20260508193803 | 18 | 339 | 9.7 | 22.5 | 0.00 | 0.00 | 0.00 | 26 | 1008.2 |
| 20260508193603 | 18 | 335 | 9.7 | 22.5 | 0.00 | 0.00 | 0.00 | 27 | 1008.3 |
| 20260508193403 | 18 | 329 | 11.3 | 22.5 | 0.00 | 0.00 | 0.00 | 26 | 1008.3 |
| 20260508193203 | 18 | 316 | 11.3 | 22.5 | 0.00 | 0.00 | 0.00 | 29 | 1008.5 |
| 20260508193003 | 18 | 310 | 9.7 | 22.5 | 0.00 | 0.00 | 0.00 | 26 | 1008.4 |
| 20260508192803 | 18 | 311 | 8.0 | 17.7 | 0.00 | 0.00 | 0.00 | 29 | 1008.4 |
| 20260508192603 | 18 | 304 | 4.8 | 17.7 | 0.00 | 0.00 | 0.00 | 30 | 1008.4 |
| 20260508192403 | 18 | 295 | 3.2 | 17.7 | 0.00 | 0.00 | 0.00 | 27 | 1008.4 |
| 20260508192203 | 18 | 299 | 1.6 | 17.7 | 0.00 | 0.00 | 0.00 | 27 | 1008.4 |
| 20260508192003 | 18 | 299 | 1.6 | 6.4 | 0.00 | 0.00 | 0.00 | 33 | 1008.5 |
| 20260508191803 | 18 | 301 | 1.6 | 6.4 | 0.00 | 0.00 | 0.00 | 34 | 1008.5 |
| 20260508191603 | 18 | 300 | 3.2 | 8.0 | 0.00 | 0.00 | 0.00 | 32 | 1008.6 |
| 20260508191424 | 17 | 302 | 3.2 | 8.0 | 0.00 | 0.00 | 0.00 | 31 | 1008.6 |
| 20260508191224 | 17 | 301 | 4.8 | 8.0 | 0.00 | 0.00 | 0.00 | 34 | 1008.5 |
| 20260508191003 | 17 | 306 | 4.8 | 8.0 | 0.00 | 0.00 | 0.00 | 32 | 1008.6 |
| 20260508190803 | 17 | 305 | 4.8 | 8.0 | 0.00 | 0.00 | 0.00 | 31 | 1008.6 |
| 20260508190603 | 17 | 305 | 6.4 | 14.5 | 0.00 | 0.00 | 0.00 | 33 | 1008.7 |
| 20260508190403 | 17 | 305 | 6.4 | 14.5 | 0.00 | 0.00 | 0.00 | 33 | 1008.7 |
| 20260508190203 | 17 | 309 | 4.8 | 14.5 | 0.00 | 0.00 | 0.00 | 32 | 1008.7 |
| 20260508190004 | 17 | 315 | 4.8 | 14.5 | 0.00 | 0.00 | 0.00 | 32 | 1008.7 |
| 20260508185803 | 17 | 328 | 4.8 | 14.5 | 0.00 | 0.00 | 0.00 | 30 | 1008.8 |
| 20260508185603 | 17 | 337 | 4.8 | 8.0 | 0.00 | 0.00 | 0.00 | 33 | 1008.9 |
| 20260508185403 | 17 | 336 | 4.8 | 11.3 | 0.00 | 0.00 | 0.00 | 31 | 1008.9 |
| 20260508185203 | 18 | 325 | 4.8 | 12.9 | 0.00 | 0.00 | 0.00 | 29 | 1008.9 |
| 20260508185003 | 18 | 310 | 4.8 | 12.9 | 0.00 | 0.00 | 0.00 | 30 | 1008.9 |
| 20260508184803 | 18 | 304 | 6.4 | 12.9 | 0.00 | 0.00 | 0.00 | 29 | 1008.9 |
| 20260508184603 | 18 | 302 | 6.4 | 12.9 | 0.00 | 0.00 | 0.00 | 31 | 1008.9 |
| 20260508184403 | 18 | 303 | 8.0 | 12.9 | 0.00 | 0.00 | 0.00 | 27 | 1008.9 |
| 20260508184203 | 17 | 305 | 8.0 | 12.9 | 0.00 | 0.00 | 0.00 | 32 | 1008.9 |
| 20260508184003 | 17 | 305 | 8.0 | 16.1 | 0.00 | 0.00 | 0.00 | 30 | 1009.0 |
| 20260508183803 | 17 | 305 | 8.0 | 16.1 | 0.00 | 0.00 | 0.00 | 33 | 1009.0 |
| 20260508183603 | 17 | 305 | 8.0 | 16.1 | 0.00 | 0.00 | 0.00 | 34 | 1009.0 |
| 20260508183403 | 17 | 308 | 6.4 | 16.1 | 0.00 | 0.00 | 0.00 | 32 | 1009.0 |
| 20260508183203 | 17 | 308 | 4.8 | 16.1 | 0.00 | 0.00 | 0.00 | 34 | 1009.0 |
| 20260508183003 | 17 | 323 | 3.2 | 12.9 | 0.00 | 0.00 | 0.00 | 35 | 1009.1 |
| 20260508182803 | 17 | 343 | 3.2 | 12.9 | 0.00 | 0.00 | 0.00 | 38 | 1009.1 |
| 20260508182603 | 17 | 350 | 3.2 | 12.9 | 0.00 | 0.00 | 0.00 | 38 | 1009.1 |
| 20260508182403 | 17 | 344 | 4.8 | 12.9 | 0.00 | 0.00 | 0.00 | 34 | 1009.2 |
| 20260508182203 | 17 | 349 | 4.8 | 12.9 | 0.00 | 0.00 | 0.00 | 35 | 1009.2 |
| 20260508182003 | 17 | 342 | 6.4 | 14.5 | 0.00 | 0.00 | 0.00 | 36 | 1009.3 |
| 20260508181803 | 17 | 331 | 6.4 | 14.5 | 0.00 | 0.00 | 0.00 | 36 | 1009.3 |
| 20260508181603 | 17 | 325 | 8.0 | 16.1 | 0.00 | 0.00 | 0.00 | 36 | 1009.4 |
| 20260508181403 | 17 | 318 | 9.7 | 17.7 | 0.00 | 0.00 | 0.00 | 38 | 1009.4 |
| 20260508181224 | 17 | 311 | 11.3 | 20.9 | 0.00 | 0.00 | 0.00 | 34 | 1009.4 |
| 20260508181024 | 17 | 304 | 9.7 | 20.9 | 0.00 | 0.00 | 0.00 | 33 | 1009.4 |
| 20260508180824 | 17 | 310 | 9.7 | 20.9 | 0.00 | 0.00 | 0.00 | 36 | 1009.5 |
| 20260508180603 | 17 | 319 | 8.0 | 20.9 | 0.00 | 0.00 | 0.00 | 40 | 1009.5 |
| 20260508180424 | 16 | 324 | 6.4 | 20.9 | 0.00 | 0.00 | 0.00 | 38 | 1009.5 |
| 20260508180203 | 16 | 335 | 4.8 | 11.3 | 0.00 | 0.00 | 0.00 | 37 | 1009.5 |
| 20260508180003 | 16 | 345 | 3.2 | 9.7 | 0.00 | 0.00 | 0.00 | 36 | 1009.5 |
| 20260508175803 | 17 | 328 | 3.2 | 9.7 | 0.00 | 0.00 | 0.00 | 37 | 1009.6 |
| 20260508175603 | 17 | 313 | 4.8 | 12.9 | 0.00 | 0.00 | 0.00 | 35 | 1009.7 |
| 20260508175403 | 17 | 312 | 4.8 | 12.9 | 0.00 | 0.00 | 0.00 | 35 | 1009.7 |
| 20260508175203 | 17 | 314 | 4.8 | 12.9 | 0.00 | 0.00 | 0.00 | 34 | 1009.7 |
| 20260508175003 | 17 | 313 | 4.8 | 12.9 | 0.00 | 0.00 | 0.00 | 34 | 1009.7 |
| 20260508174803 | 17 | 304 | 6.4 | 12.9 | 0.00 | 0.00 | 0.00 | 34 | 1009.8 |
| 20260508174603 | 17 | 312 | 6.4 | 12.9 | 0.00 | 0.00 | 0.00 | 35 | 1009.9 |
| 20260508174424 | 16 | 321 | 4.8 | 12.9 | 0.00 | 0.00 | 0.00 | 35 | 1009.9 |
| 20260508174224 | 16 | 330 | 4.8 | 12.9 | 0.00 | 0.00 | 0.00 | 37 | 1009.9 |
| 20260508174003 | 16 | 351 | 4.8 | 12.9 | 0.00 | 0.00 | 0.00 | 34 | 1010.0 |
| 20260508173803 | 16 | 359 | 4.8 | 17.7 | 0.00 | 0.00 | 0.00 | 38 | 1010.0 |
| 20260508173603 | 16 | 358 | 4.8 | 17.7 | 0.00 | 0.00 | 0.00 | 40 | 1010.0 |
| 20260508173403 | 16 | 353 | 6.4 | 17.7 | 0.00 | 0.00 | 0.00 | 39 | 1010.0 |
| 20260508173203 | 16 | 335 | 8.0 | 17.7 | 0.00 | 0.00 | 0.00 | 36 | 1010.1 |
| 20260508173003 | 16 | 320 | 8.0 | 17.7 | 0.00 | 0.00 | 0.00 | 38 | 1010.1 |
| 20260508172824 | 16 | 316 | 8.0 | 16.1 | 0.00 | 0.00 | 0.00 | 36 | 1010.1 |
| 20260508172603 | 16 | 307 | 9.7 | 17.7 | 0.00 | 0.00 | 0.00 | 36 | 1010.1 |
| 20260508172403 | 16 | 300 | 9.7 | 19.3 | 0.00 | 0.00 | 0.00 | 36 | 1010.0 |
| 20260508172203 | 16 | 301 | 8.0 | 19.3 | 0.00 | 0.00 | 0.00 | 35 | 1010.1 |
| 20260508172003 | 16 | 306 | 8.0 | 19.3 | 0.00 | 0.00 | 0.00 | 34 | 1010.1 |
| 20260508171824 | 16 | 312 | 9.7 | 19.3 | 0.00 | 0.00 | 0.00 | 36 | 1010.1 |
| 20260508171603 | 16 | 323 | 6.4 | 19.3 | 0.00 | 0.00 | 0.00 | 35 | 1010.1 |
| 20260508171403 | 16 | 332 | 6.4 | 16.1 | 0.00 | 0.00 | 0.00 | 33 | 1010.1 |
| 20260508171203 | 16 | 340 | 6.4 | 16.1 | 0.00 | 0.00 | 0.00 | 33 | 1010.1 |
| 20260508171003 | 16 | 339 | 6.4 | 16.1 | 0.00 | 0.00 | 0.00 | 36 | 1010.3 |
| 20260508170803 | 16 | 335 | 6.4 | 17.7 | 0.00 | 0.00 | 0.00 | 35 | 1010.2 |
| 20260508170603 | 16 | 327 | 6.4 | 17.7 | 0.00 | 0.00 | 0.00 | 35 | 1010.3 |
| 20260508170403 | 16 | 316 | 6.4 | 17.7 | 0.00 | 0.00 | 0.00 | 37 | 1010.2 |
| 20260508170203 | 16 | 309 | 8.0 | 17.7 | 0.00 | 0.00 | 0.00 | 35 | 1010.3 |
| 20260508170003 | 16 | 303 | 6.4 | 17.7 | 0.00 | 0.00 | 0.00 | 36 | 1010.3 |
| 20260508165803 | 16 | 300 | 6.4 | 14.5 | 0.00 | 0.00 | 0.00 | 38 | 1010.3 |
| 20260508165603 | 16 | 301 | 4.8 | 14.5 | 0.00 | 0.00 | 0.00 | 39 | 1010.4 |
| 20260508165403 | 16 | 302 | 4.8 | 12.9 | 0.00 | 0.00 | 0.00 | 41 | 1010.5 |
| 20260508165203 | 15 | 304 | 4.8 | 17.7 | 0.00 | 0.00 | 0.00 | 41 | 1010.5 |
| 20260508165004 | 15 | 307 | 4.8 | 17.7 | 0.00 | 0.00 | 0.00 | 39 | 1010.6 |
| 20260508164803 | 15 | 312 | 6.4 | 17.7 | 0.00 | 0.00 | 0.00 | 38 | 1010.6 |
| 20260508164603 | 15 | 322 | 6.4 | 17.7 | 0.00 | 0.00 | 0.00 | 39 | 1010.7 |
| 20260508164403 | 15 | 335 | 6.4 | 17.7 | 0.00 | 0.00 | 0.00 | 39 | 1010.8 |
| 20260508164203 | 15 | 352 | 4.8 | 14.5 | 0.00 | 0.00 | 0.00 | 40 | 1010.8 |
| 20260508164003 | 15 | 12 | 4.8 | 11.3 | 0.00 | 0.00 | 0.00 | 43 | 1010.8 |
| 20260508163803 | 15 | 357 | 4.8 | 12.9 | 0.00 | 0.00 | 0.00 | 40 | 1010.8 |
| 20260508163603 | 15 | 346 | 4.8 | 12.9 | 0.00 | 0.00 | 0.00 | 41 | 1010.8 |
| 20260508163403 | 15 | 324 | 6.4 | 14.5 | 0.00 | 0.00 | 0.00 | 44 | 1010.8 |
| 20260508163203 | 15 | 325 | 6.4 | 14.5 | 0.00 | 0.00 | 0.00 | 42 | 1010.8 |
| 20260508163003 | 15 | 331 | 6.4 | 14.5 | 0.00 | 0.00 | 0.00 | 41 | 1010.8 |
| 20260508162824 | 15 | 341 | 6.4 | 14.5 | 0.00 | 0.00 | 0.00 | 42 | 1010.8 |
| 20260508162603 | 15 | 340 | 6.4 | 14.5 | 0.00 | 0.00 | 0.00 | 41 | 1010.8 |
| 20260508162403 | 15 | 354 | 4.8 | 14.5 | 0.00 | 0.00 | 0.00 | 45 | 1010.9 |
| 20260508162203 | 15 | 353 | 4.8 | 14.5 | 0.00 | 0.00 | 0.00 | 41 | 1010.9 |
| 20260508162003 | 15 | 342 | 4.8 | 14.5 | 0.00 | 0.00 | 0.00 | 41 | 1010.9 |
| 20260508161803 | 15 | 331 | 4.8 | 14.5 | 0.00 | 0.00 | 0.00 | 39 | 1010.9 |
| 20260508161603 | 15 | 331 | 4.8 | 11.3 | 0.00 | 0.00 | 0.00 | 40 | 1010.8 |
| 20260508161403 | 15 | 339 | 4.8 | 11.3 | 0.00 | 0.00 | 0.00 | 39 | 1010.8 |
| 20260508161203 | 15 | 341 | 4.8 | 11.3 | 0.00 | 0.00 | 0.00 | 41 | 1010.8 |
| 20260508161003 | 15 | 343 | 3.2 | 11.3 | 0.00 | 0.00 | 0.00 | 45 | 1010.9 |
| 20260508160803 | 14 | 335 | 3.2 | 9.7 | 0.00 | 0.00 | 0.00 | 45 | 1010.9 |
| 20260508160603 | 14 | 312 | 3.2 | 11.3 | 0.00 | 0.00 | 0.00 | 42 | 1010.9 |
| 20260508160403 | 14 | 306 | 4.8 | 11.3 | 0.00 | 0.00 | 0.00 | 44 | 1010.9 |
| 20260508160203 | 14 | 303 | 4.8 | 11.3 | 0.00 | 0.00 | 0.00 | 43 | 1010.9 |
| 20260508160003 | 14 | 303 | 4.8 | 11.3 | 0.00 | 0.00 | 0.00 | 43 | 1010.9 |
| 20260508155803 | 14 | 307 | 4.8 | 11.3 | 0.00 | 0.00 | 0.00 | 44 | 1010.9 |
| 20260508155603 | 14 | 310 | 3.2 | 9.7 | 0.00 | 0.00 | 0.00 | 47 | 1010.9 |
| 20260508155403 | 14 | 312 | 3.2 | 9.7 | 0.00 | 0.00 | 0.00 | 43 | 1010.9 |
| 20260508155203 | 14 | 308 | 3.2 | 9.7 | 0.00 | 0.00 | 0.00 | 47 | 1010.9 |
| 20260508155024 | 14 | 47 | 3.2 | 9.7 | 0.00 | 0.00 | 0.00 | 44 | 1010.9 |
| 20260508154803 | 13 | 136 | 1.6 | 8.0 | 0.00 | 0.00 | 0.00 | 46 | 1010.8 |
| 20260508154603 | 13 | 353 | 3.2 | 9.7 | 0.00 | 0.00 | 0.00 | 43 | 1010.9 |
| 20260508154403 | 13 | 336 | 3.2 | 9.7 | 0.00 | 0.00 | 0.00 | 42 | 1010.9 |
| 20260508154203 | 13 | 336 | 3.2 | 9.7 | 0.00 | 0.00 | 0.00 | 44 | 1010.8 |
| 20260508154003 | 13 | 330 | 3.2 | 9.7 | 0.00 | 0.00 | 0.00 | 44 | 1010.9 |
| 20260508153803 | 13 | 328 | 3.2 | 9.7 | 0.00 | 0.00 | 0.00 | 45 | 1010.9 |
| 20260508153603 | 13 | 327 | 1.6 | 9.7 | 0.00 | 0.00 | 0.00 | 48 | 1010.9 |
| 20260508153403 | 13 | 309 | 1.6 | 6.4 | 0.00 | 0.00 | 0.00 | 49 | 1011.0 |
| 20260508153203 | 13 | 289 | 1.6 | 6.4 | 0.00 | 0.00 | 0.00 | 48 | 1011.0 |
| 20260508153003 | 13 | 284 | 1.6 | 6.4 | 0.00 | 0.00 | 0.00 | 50 | 1011.0 |
| 20260508152803 | 13 | 279 | 1.6 | 6.4 | 0.00 | 0.00 | 0.00 | 48 | 1011.0 |
| 20260508152603 | 13 | 270 | 1.6 | 6.4 | 0.00 | 0.00 | 0.00 | 48 | 1011.0 |
| 20260508152403 | 13 | 271 | 1.6 | 6.4 | 0.00 | 0.00 | 0.00 | 51 | 1011.0 |
| 20260508152203 | 13 | 278 | 1.6 | 6.4 | 0.00 | 0.00 | 0.00 | 51 | 1011.1 |
| 20260508152003 | 13 | 275 | 1.6 | 6.4 | 0.00 | 0.00 | 0.00 | 52 | 1011.1 |
| 20260508151824 | 13 | 271 | 1.6 | 6.4 | 0.00 | 0.00 | 0.00 | 53 | 1011.1 |
| 20260508151603 | 13 | 223 | 1.6 | 6.4 | 0.00 | 0.00 | 0.00 | 53 | 1011.1 |
| 20260508151403 | 13 | 176 | 1.6 | 6.4 | 0.00 | 0.00 | 0.00 | 55 | 1011.0 |
| 20260508151203 | 13 | 164 | 1.6 | 9.7 | 0.00 | 0.00 | 0.00 | 53 | 1011.0 |
| 20260508151003 | 12 | 169 | 1.6 | 9.7 | 0.00 | 0.00 | 0.00 | 54 | 1011.0 |
| 20260508150824 | 12 | 170 | 1.6 | 9.7 | 0.00 | 0.00 | 0.00 | 55 | 1011.1 |
| 20260508150624 | 12 | 177 | 1.6 | 9.7 | 0.00 | 0.00 | 0.00 | 54 | 1011.0 |
| 20260508150403 | 12 | 183 | 1.6 | 9.7 | 0.00 | 0.00 | 0.00 | 55 | 1011.0 |
| 20260508150203 | 12 | 196 | 1.6 | 8.0 | 0.00 | 0.00 | 0.00 | 56 | 1011.0 |
| 20260508150004 | 12 | 195 | 1.6 | 4.8 | 0.00 | 0.00 | 0.00 | 55 | 1011.1 |
| 20260508145803 | 12 | 191 | 1.6 | 6.4 | 0.00 | 0.00 | 0.00 | 55 | 1011.2 |
| 20260508145624 | 12 | 189 | 1.6 | 6.4 | 0.00 | 0.00 | 0.00 | 55 | 1011.2 |
| 20260508145403 | 12 | 185 | 0.0 | 6.4 | 0.00 | 0.00 | 0.00 | 55 | 1011.2 |
| 20260508145203 | 12 | 181 | 0.0 | 6.4 | 0.00 | 0.00 | 0.00 | 57 | 1011.3 |
| 20260508145003 | 12 | 184 | 0.0 | 6.4 | 0.00 | 0.00 | 0.00 | 56 | 1011.3 |
| 20260508144824 | 12 | 187 | 0.0 | 6.4 | 0.00 | 0.00 | 0.00 | 58 | 1011.4 |
| 20260508144603 | 12 | 193 | 1.6 | 4.8 | 0.00 | 0.00 | 0.00 | 58 | 1011.4 |
| 20260508144403 | 12 | 197 | 1.6 | 4.8 | 0.00 | 0.00 | 0.00 | 59 | 1011.3 |
| 20260508144203 | 12 | 227 | 1.6 | 4.8 | 0.00 | 0.00 | 0.00 | 59 | 1011.4 |
| 20260508144003 | 11 | 243 | 1.6 | 4.8 | 0.00 | 0.00 | 0.00 | 59 | 1011.4 |
| 20260508143824 | 11 | 278 | 1.6 | 6.4 | 0.00 | 0.00 | 0.00 | 59 | 1011.4 |
| 20260508143603 | 11 | 298 | 1.6 | 6.4 | 0.00 | 0.00 | 0.00 | 60 | 1011.5 |
| 20260508143403 | 11 | 302 | 1.6 | 6.4 | 0.00 | 0.00 | 0.00 | 60 | 1011.5 |
| 20260508143203 | 11 | 304 | 1.6 | 6.4 | 0.00 | 0.00 | 0.00 | 61 | 1011.5 |
| 20260508143003 | 11 | 305 | 1.6 | 6.4 | 0.00 | 0.00 | 0.00 | 61 | 1011.5 |
| 20260508142803 | 11 | 307 | 1.6 | 6.4 | 0.00 | 0.00 | 0.00 | 60 | 1011.5 |
| 20260508142603 | 11 | 307 | 0.0 | 4.8 | 0.00 | 0.00 | 0.00 | 61 | 1011.6 |
| 20260508142403 | 11 | 308 | 0.0 | 3.2 | 0.00 | 0.00 | 0.00 | 61 | 1011.7 |
| 20260508142224 | 11 | 0 | 0.0 | 0.0 | 0.00 | 0.00 | 0.00 | 61 | 1011.6 |
| 20260508142003 | 11 | 0 | 0.0 | 0.0 | 0.00 | 0.00 | 0.00 | 61 | 1011.6 |
| 20260508141803 | 11 | 0 | 0.0 | 0.0 | 0.00 | 0.00 | 0.00 | 61 | 1011.6 |
| 20260508141624 | 11 | 0 | 0.0 | 0.0 | 0.00 | 0.00 | 0.00 | 61 | 1011.6 |
| 20260508141403 | 10 | 0 | 0.0 | 1.6 | 0.00 | 0.00 | 0.00 | 62 | 1011.7 |
| 20260508141203 | 10 | 0 | 0.0 | 1.6 | 0.00 | 0.00 | 0.00 | 63 | 1011.7 |
| 20260508141024 | 10 | 0 | 0.0 | 1.6 | 0.00 | 0.00 | 0.00 | 64 | 1011.7 |
| 20260508140803 | 10 | 0 | 0.0 | 1.6 | 0.00 | 0.00 | 0.00 | 63 | 1011.8 |
| 20260508140603 | 10 | 0 | 0.0 | 1.6 | 0.00 | 0.00 | 0.00 | 63 | 1011.8 |
| 20260508140403 | 10 | 308 | 0.0 | 1.6 | 0.00 | 0.00 | 0.00 | 63 | 1011.7 |
| 20260508140203 | 10 | 310 | 1.6 | 4.8 | 0.00 | 0.00 | 0.00 | 63 | 1011.6 |
| 20260508140003 | 10 | 312 | 1.6 | 4.8 | 0.00 | 0.00 | 0.00 | 63 | 1011.7 |
| 20260508135803 | 10 | 312 | 1.6 | 4.8 | 0.00 | 0.00 | 0.00 | 63 | 1011.7 |
| 20260508135624 | 10 | 312 | 1.6 | 4.8 | 0.00 | 0.00 | 0.00 | 63 | 1011.6 |
| 20260508135403 | 10 | 312 | 1.6 | 4.8 | 0.00 | 0.00 | 0.00 | 63 | 1011.7 |
| 20260508135203 | 10 | 313 | 1.6 | 3.2 | 0.00 | 0.00 | 0.00 | 64 | 1011.7 |
| 20260508135003 | 10 | 311 | 1.6 | 4.8 | 0.00 | 0.00 | 0.00 | 64 | 1011.6 |
| 20260508134803 | 10 | 311 | 1.6 | 4.8 | 0.00 | 0.00 | 0.00 | 64 | 1011.6 |
| 20260508134603 | 10 | 311 | 0.0 | 4.8 | 0.00 | 0.00 | 0.00 | 65 | 1011.6 |
| 20260508134424 | 9 | 311 | 0.0 | 4.8 | 0.00 | 0.00 | 0.00 | 65 | 1011.7 |
| 20260508134203 | 9 | 312 | 0.0 | 4.8 | 0.00 | 0.00 | 0.00 | 65 | 1011.7 |
| 20260508134024 | 9 | 316 | 0.0 | 3.2 | 0.00 | 0.00 | 0.00 | 66 | 1011.7 |
| 20260508133803 | 9 | 0 | 0.0 | 0.0 | 0.00 | 0.00 | 0.00 | 66 | 1011.7 |
| 20260508133603 | 9 | 318 | 0.0 | 1.6 | 0.00 | 0.00 | 0.00 | 66 | 1011.8 |
| 20260508133403 | 9 | 318 | 0.0 | 1.6 | 0.00 | 0.00 | 0.00 | 67 | 1011.7 |
| 20260508133203 | 9 | 319 | 0.0 | 3.2 | 0.00 | 0.00 | 0.00 | 67 | 1011.7 |
| 20260508133003 | 9 | 319 | 0.0 | 3.2 | 0.00 | 0.00 | 0.00 | 67 | 1011.7 |
| 20260508132803 | 9 | 319 | 0.0 | 3.2 | 0.00 | 0.00 | 0.00 | 67 | 1011.7 |
| 20260508132603 | 8 | 319 | 0.0 | 3.2 | 0.00 | 0.00 | 0.00 | 67 | 1011.7 |
| 20260508132403 | 8 | 320 | 1.6 | 4.8 | 0.00 | 0.00 | 0.00 | 68 | 1011.8 |
| 20260508132224 | 8 | 320 | 0.0 | 4.8 | 0.00 | 0.00 | 0.00 | 68 | 1011.8 |
| 20260508132003 | 8 | 320 | 1.6 | 4.8 | 0.00 | 0.00 | 0.00 | 68 | 1011.9 |
| 20260508131803 | 8 | 320 | 1.6 | 4.8 | 0.00 | 0.00 | 0.00 | 68 | 1011.9 |
| 20260508131624 | 8 | 316 | 1.6 | 6.4 | 0.00 | 0.00 | 0.00 | 68 | 1011.8 |
| 20260508131403 | 8 | 314 | 1.6 | 6.4 | 0.00 | 0.00 | 0.00 | 68 | 1011.8 |
| 20260508131203 | 8 | 310 | 1.6 | 6.4 | 0.00 | 0.00 | 0.00 | 68 | 1011.8 |
| 20260508131003 | 8 | 308 | 1.6 | 6.4 | 0.00 | 0.00 | 0.00 | 68 | 1011.8 |
| 20260508130824 | 8 | 308 | 1.6 | 6.4 | 0.00 | 0.00 | 0.00 | 69 | 1011.8 |
| 20260508130603 | 8 | 325 | 1.6 | 6.4 | 0.00 | 0.00 | 0.00 | 69 | 1011.8 |
| 20260508130403 | 8 | 336 | 1.6 | 6.4 | 0.00 | 0.00 | 0.00 | 69 | 1011.9 |
| 20260508130203 | 8 | 345 | 1.6 | 6.4 | 0.00 | 0.00 | 0.00 | 70 | 1011.9 |
| 20260508130003 | 8 | 357 | 1.6 | 4.8 | 0.00 | 0.00 | 0.00 | 71 | 1011.9 |
| 20260508125803 | 8 | 349 | 1.6 | 6.4 | 0.00 | 0.00 | 0.00 | 71 | 1011.9 |
| 20260508125603 | 8 | 333 | 1.6 | 8.0 | 0.00 | 0.00 | 0.00 | 71 | 1011.9 |
| 20260508125403 | 8 | 324 | 1.6 | 8.0 | 0.00 | 0.00 | 0.00 | 71 | 1012.0 |
| 20260508125203 | 8 | 321 | 3.2 | 8.0 | 0.00 | 0.00 | 0.00 | 72 | 1012.0 |
| 20260508125003 | 8 | 326 | 3.2 | 9.7 | 0.00 | 0.00 | 0.00 | 71 | 1012.1 |
| 20260508124824 | 8 | 325 | 3.2 | 9.7 | 0.00 | 0.00 | 0.00 | 73 | 1012.0 |
| 20260508124624 | 7 | 320 | 3.2 | 9.7 | 0.00 | 0.00 | 0.00 | 73 | 1012.1 |
| 20260508124403 | 7 | 312 | 3.2 | 9.7 | 0.00 | 0.00 | 0.00 | 74 | 1012.1 |
| 20260508124203 | 7 | 318 | 3.2 | 9.7 | 0.00 | 0.00 | 0.00 | 74 | 1012.0 |
| 20260508124024 | 7 | 310 | 1.6 | 4.8 | 0.00 | 0.00 | 0.00 | 74 | 1012.0 |
| 20260508123803 | 7 | 310 | 1.6 | 4.8 | 0.00 | 0.00 | 0.00 | 74 | 1011.9 |
| 20260508123603 | 7 | 314 | 1.6 | 4.8 | 0.00 | 0.00 | 0.00 | 74 | 1011.9 |
| 20260508123424 | 7 | 348 | 0.0 | 4.8 | 0.00 | 0.00 | 0.00 | 74 | 1011.9 |
| 20260508123203 | 7 | 0 | 0.0 | 0.0 | 0.00 | 0.00 | 0.00 | 74 | 1011.9 |
| 20260508123003 | 7 | 0 | 0.0 | 0.0 | 0.00 | 0.00 | 0.00 | 73 | 1011.8 |
| 20260508122803 | 7 | 0 | 0.0 | 0.0 | 0.00 | 0.00 | 0.00 | 74 | 1011.9 |
| 20260508122603 | 7 | 0 | 0.0 | 0.0 | 0.00 | 0.00 | 0.00 | 74 | 1011.9 |
| 20260508122403 | 6 | 0 | 0.0 | 0.0 | 0.00 | 0.00 | 0.00 | 74 | 1011.9 |
| 20260508122203 | 6 | 0 | 0.0 | 0.0 | 0.00 | 0.00 | 0.00 | 74 | 1011.9 |
| 20260508122024 | 6 | 0 | 0.0 | 0.0 | 0.00 | 0.00 | 0.00 | 74 | 1011.9 |
| 20260508121803 | 6 | 0 | 0.0 | 0.0 | 0.00 | 0.00 | 0.00 | 74 | 1011.8 |
| 20260508121603 | 6 | 0 | 0.0 | 0.0 | 0.00 | 0.00 | 0.00 | 75 | 1011.8 |
| 20260508121424 | 6 | 0 | 0.0 | 0.0 | 0.00 | 0.00 | 0.00 | 75 | 1011.8 |
| 20260508121224 | 6 | 0 | 0.0 | 0.0 | 0.00 | 0.00 | 0.00 | 75 | 1011.8 |
| 20260508121003 | 6 | 0 | 0.0 | 0.0 | 0.00 | 0.00 | 0.00 | 76 | 1011.9 |
| 20260508120803 | 6 | 0 | 0.0 | 0.0 | 0.00 | 0.00 | 0.00 | 76 | 1011.8 |
| 20260508120624 | 6 | 0 | 0.0 | 0.0 | 0.00 | 0.00 | 0.00 | 76 | 1011.8 |
| 20260508120403 | 6 | 0 | 0.0 | 0.0 | 0.00 | 0.00 | 0.00 | 76 | 1011.8 |
| 20260508120203 | 6 | 0 | 0.0 | 0.0 | 0.00 | 0.00 | 0.00 | 77 | 1011.7 |
| 20260508120003 | 6 | 0 | 0.0 | 0.0 | 0.00 | 0.00 | 0.00 | 77 | 1011.7 |
| 20260508115803 | 5 | 0 | 0.0 | 0.0 | 0.00 | 0.00 | 0.00 | 78 | 1011.7 |
| 20260508115603 | 5 | 0 | 0.0 | 0.0 | 0.00 | 0.00 | 0.00 | 78 | 1011.7 |
| 20260508115424 | 5 | 0 | 0.0 | 0.0 | 0.00 | 0.00 | 0.00 | 77 | 1011.7 |
| 20260508115203 | 5 | 0 | 0.0 | 0.0 | 0.00 | 0.00 | 0.00 | 77 | 1011.7 |
| 20260508115003 | 5 | 0 | 0.0 | 0.0 | 0.00 | 0.00 | 0.00 | 77 | 1011.7 |
| 20260508114803 | 5 | 0 | 0.0 | 0.0 | 0.00 | 0.00 | 0.00 | 77 | 1011.7 |
| 20260508114603 | 5 | 0 | 0.0 | 0.0 | 0.00 | 0.00 | 0.00 | 78 | 1011.5 |
| 20260508114403 | 5 | 0 | 0.0 | 0.0 | 0.00 | 0.00 | 0.00 | 78 | 1011.5 |
| 20260508114224 | 4 | 0 | 0.0 | 0.0 | 0.00 | 0.00 | 0.00 | 78 | 1011.5 |
| 20260508114003 | 4 | 0 | 0.0 | 0.0 | 0.00 | 0.00 | 0.00 | 77 | 1011.4 |
| 20260508113803 | 4 | 0 | 0.0 | 0.0 | 0.00 | 0.00 | 0.00 | 76 | 1011.4 |
| 20260508113603 | 4 | 0 | 0.0 | 0.0 | 0.00 | 0.00 | 0.00 | 76 | 1011.4 |
| 20260508113403 | 3 | 0 | 0.0 | 0.0 | 0.00 | 0.00 | 0.00 | 76 | 1011.4 |
| 20260508113203 | 3 | 0 | 0.0 | 0.0 | 0.00 | 0.00 | 0.00 | 76 | 1011.3 |
| 20260508113004 | 3 | 0 | 0.0 | 0.0 | 0.00 | 0.00 | 0.00 | 76 | 1011.3 |
| 20260508112803 | 3 | 0 | 0.0 | 0.0 | 0.00 | 0.00 | 0.00 | 75 | 1011.3 |
| 20260508112624 | 3 | 0 | 0.0 | 0.0 | 0.00 | 0.00 | 0.00 | 74 | 1011.2 |
| 20260508112403 | 3 | 0 | 0.0 | 0.0 | 0.00 | 0.00 | 0.00 | 73 | 1011.2 |
| 20260508112203 | 3 | 0 | 0.0 | 0.0 | 0.00 | 0.00 | 0.00 | 73 | 1011.2 |
| 20260508112003 | 3 | 0 | 0.0 | 0.0 | 0.00 | 0.00 | 0.00 | 73 | 1011.2 |
| 20260508111803 | 3 | 0 | 0.0 | 0.0 | 0.00 | 0.00 | 0.00 | 73 | 1011.3 |
| 20260508111603 | 3 | 0 | 0.0 | 0.0 | 0.00 | 0.00 | 0.00 | 73 | 1011.2 |
| 20260508111403 | 3 | 0 | 0.0 | 0.0 | 0.00 | 0.00 | 0.00 | 73 | 1011.1 |
| 20260508111203 | 3 | 0 | 0.0 | 0.0 | 0.00 | 0.00 | 0.00 | 73 | 1011.2 |
| 20260508111003 | 3 | 0 | 0.0 | 0.0 | 0.00 | 0.00 | 0.00 | 73 | 1011.1 |
| 20260508110803 | 2 | 0 | 0.0 | 0.0 | 0.00 | 0.00 | 0.00 | 72 | 1011.1 |
| 20260508110603 | 2 | 0 | 0.0 | 0.0 | 0.00 | 0.00 | 0.00 | 72 | 1011.1 |
| 20260508110403 | 2 | 0 | 0.0 | 0.0 | 0.00 | 0.00 | 0.00 | 72 | 1011.2 |
| 20260508110203 | 2 | 0 | 0.0 | 0.0 | 0.00 | 0.00 | 0.00 | 72 | 1011.1 |
| 20260508110003 | 2 | 0 | 0.0 | 0.0 | 0.00 | 0.00 | 0.00 | 72 | 1011.1 |
| 20260508105803 | 2 | 0 | 0.0 | 0.0 | 0.00 | 0.00 | 0.00 | 72 | 1011.1 |
| 20260508105603 | 2 | 0 | 0.0 | 0.0 | 0.00 | 0.00 | 0.00 | 72 | 1011.1 |
| 20260508105403 | 2 | 0 | 0.0 | 0.0 | 0.00 | 0.00 | 0.00 | 72 | 1011.2 |
| 20260508105203 | 2 | 0 | 0.0 | 0.0 | 0.00 | 0.00 | 0.00 | 72 | 1011.1 |
| 20260508105003 | 2 | 0 | 0.0 | 0.0 | 0.00 | 0.00 | 0.00 | 72 | 1011.1 |
| 20260508104803 | 2 | 0 | 0.0 | 0.0 | 0.00 | 0.00 | 0.00 | 72 | 1011.1 |
| 20260508104603 | 2 | 0 | 0.0 | 0.0 | 0.00 | 0.00 | 0.00 | 72 | 1011.1 |
| 20260508104403 | 2 | 0 | 0.0 | 0.0 | 0.00 | 0.00 | 0.00 | 72 | 1011.1 |
| 20260508104224 | 2 | 0 | 0.0 | 0.0 | 0.00 | 0.00 | 0.00 | 71 | 1011.1 |
| 20260508104003 | 2 | 0 | 0.0 | 0.0 | 0.00 | 0.00 | 0.00 | 71 | 1011.1 |
| 20260508103803 | 2 | 0 | 0.0 | 0.0 | 0.00 | 0.00 | 0.00 | 71 | 1011.0 |
| 20260508103603 | 2 | 0 | 0.0 | 0.0 | 0.00 | 0.00 | 0.00 | 71 | 1011.1 |
| 20260508103403 | 2 | 0 | 0.0 | 0.0 | 0.00 | 0.00 | 0.00 | 71 | 1011.1 |
| 20260508103203 | 2 | 0 | 0.0 | 0.0 | 0.00 | 0.00 | 0.00 | 71 | 1011.1 |
| 20260508103024 | 2 | 0 | 0.0 | 0.0 | 0.00 | 0.00 | 0.00 | 71 | 1011.1 |
| 20260508102803 | 2 | 0 | 0.0 | 0.0 | 0.00 | 0.00 | 0.00 | 71 | 1011.2 |
| 20260508102624 | 2 | 0 | 0.0 | 0.0 | 0.00 | 0.00 | 0.00 | 71 | 1011.1 |
| 20260508102403 | 2 | 0 | 0.0 | 0.0 | 0.00 | 0.00 | 0.00 | 72 | 1011.0 |
| 20260508102203 | 2 | 0 | 0.0 | 0.0 | 0.00 | 0.00 | 0.00 | 72 | 1011.0 |
| 20260508102003 | 2 | 0 | 0.0 | 0.0 | 0.00 | 0.00 | 0.00 | 72 | 1011.0 |
| 20260508101803 | 2 | 0 | 0.0 | 0.0 | 0.00 | 0.00 | 0.00 | 72 | 1011.0 |
| 20260508101603 | 2 | 0 | 0.0 | 0.0 | 0.00 | 0.00 | 0.00 | 72 | 1010.9 |
| 20260508101424 | 2 | 0 | 0.0 | 0.0 | 0.00 | 0.00 | 0.00 | 72 | 1010.9 |
| 20260508101203 | 2 | 0 | 0.0 | 0.0 | 0.00 | 0.00 | 0.00 | 72 | 1010.9 |
| 20260508101003 | 2 | 0 | 0.0 | 0.0 | 0.00 | 0.00 | 0.00 | 72 | 1011.0 |
| 20260508100803 | 2 | 0 | 0.0 | 0.0 | 0.00 | 0.00 | 0.00 | 72 | 1010.9 |
| 20260508100603 | 2 | 0 | 0.0 | 0.0 | 0.00 | 0.00 | 0.00 | 72 | 1010.9 |
| 20260508100403 | 2 | 0 | 0.0 | 0.0 | 0.00 | 0.00 | 0.00 | 72 | 1011.0 |
| 20260508100203 | 2 | 0 | 0.0 | 0.0 | 0.00 | 0.00 | 0.00 | 72 | 1011.0 |
| 20260508100003 | 2 | 0 | 0.0 | 0.0 | 0.00 | 0.00 | 0.00 | 72 | 1011.0 |
| 20260508095803 | 2 | 0 | 0.0 | 0.0 | 0.00 | 0.00 | 0.00 | 72 | 1011.1 |
| 20260508095624 | 2 | 0 | 0.0 | 0.0 | 0.00 | 0.00 | 0.00 | 72 | 1011.1 |
| 20260508095424 | 2 | 0 | 0.0 | 0.0 | 0.00 | 0.00 | 0.00 | 71 | 1011.1 |
| 20260508095203 | 2 | 0 | 0.0 | 0.0 | 0.00 | 0.00 | 0.00 | 71 | 1011.0 |
| 20260508095003 | 2 | 0 | 0.0 | 0.0 | 0.00 | 0.00 | 0.00 | 71 | 1011.1 |
| 20260508094824 | 2 | 0 | 0.0 | 0.0 | 0.00 | 0.00 | 0.00 | 71 | 1011.0 |
| 20260508094603 | 2 | 0 | 0.0 | 0.0 | 0.00 | 0.00 | 0.00 | 71 | 1011.1 |
| 20260508094403 | 2 | 0 | 0.0 | 0.0 | 0.00 | 0.00 | 0.00 | 71 | 1011.1 |
| 20260508094203 | 2 | 0 | 0.0 | 0.0 | 0.00 | 0.00 | 0.00 | 70 | 1011.1 |
| 20260508094003 | 2 | 0 | 0.0 | 0.0 | 0.00 | 0.00 | 0.00 | 70 | 1011.0 |
| 20260508093803 | 2 | 0 | 0.0 | 0.0 | 0.00 | 0.00 | 0.00 | 70 | 1011.0 |
| 20260508093603 | 3 | 0 | 0.0 | 0.0 | 0.00 | 0.00 | 0.00 | 70 | 1011.1 |
| 20260508093403 | 3 | 0 | 0.0 | 0.0 | 0.00 | 0.00 | 0.00 | 70 | 1011.0 |
| 20260508093203 | 3 | 0 | 0.0 | 0.0 | 0.00 | 0.00 | 0.00 | 70 | 1011.1 |
| 20260508093003 | 3 | 0 | 0.0 | 0.0 | 0.00 | 0.00 | 0.00 | 70 | 1011.0 |
| 20260508092803 | 3 | 0 | 0.0 | 0.0 | 0.00 | 0.00 | 0.00 | 70 | 1011.1 |
| 20260508092603 | 3 | 0 | 0.0 | 0.0 | 0.00 | 0.00 | 0.00 | 70 | 1011.1 |
| 20260508092403 | 3 | 0 | 0.0 | 0.0 | 0.00 | 0.00 | 0.00 | 70 | 1011.1 |
| 20260508092203 | 3 | 0 | 0.0 | 0.0 | 0.00 | 0.00 | 0.00 | 70 | 1011.1 |
| 20260508092003 | 3 | 0 | 0.0 | 0.0 | 0.00 | 0.00 | 0.00 | 70 | 1011.1 |
| 20260508091803 | 3 | 0 | 0.0 | 0.0 | 0.00 | 0.00 | 0.00 | 70 | 1011.1 |
| 20260508091603 | 3 | 0 | 0.0 | 0.0 | 0.00 | 0.00 | 0.00 | 70 | 1011.1 |
| 20260508091403 | 3 | 0 | 0.0 | 0.0 | 0.00 | 0.00 | 0.00 | 70 | 1011.2 |
| 20260508091203 | 3 | 0 | 0.0 | 0.0 | 0.00 | 0.00 | 0.00 | 70 | 1011.1 |
| 20260508091003 | 3 | 0 | 0.0 | 0.0 | 0.00 | 0.00 | 0.00 | 70 | 1011.2 |
| 20260508090803 | 3 | 0 | 0.0 | 0.0 | 0.00 | 0.00 | 0.00 | 70 | 1011.1 |
| 20260508090603 | 3 | 0 | 0.0 | 0.0 | 0.00 | 0.00 | 0.00 | 70 | 1011.2 |
| 20260508090403 | 3 | 0 | 0.0 | 0.0 | 0.00 | 0.00 | 0.00 | 70 | 1011.2 |
| 20260508090203 | 3 | 0 | 0.0 | 0.0 | 0.00 | 0.00 | 0.00 | 70 | 1011.2 |
| 20260508090003 | 3 | 0 | 0.0 | 0.0 | 0.00 | 0.00 | 0.00 | 70 | 1011.2 |
| 20260508085803 | 3 | 0 | 0.0 | 0.0 | 0.00 | 0.00 | 0.00 | 70 | 1011.2 |
| 20260508085624 | 3 | 0 | 0.0 | 0.0 | 0.00 | 0.00 | 0.00 | 70 | 1011.2 |
| 20260508085403 | 3 | 0 | 0.0 | 0.0 | 0.00 | 0.00 | 0.00 | 71 | 1011.2 |
| 20260508085224 | 3 | 0 | 0.0 | 0.0 | 0.00 | 0.00 | 0.00 | 71 | 1011.2 |
| 20260508085003 | 3 | 0 | 0.0 | 0.0 | 0.00 | 0.00 | 0.00 | 71 | 1011.2 |
| 20260508084803 | 3 | 0 | 0.0 | 0.0 | 0.00 | 0.00 | 0.00 | 71 | 1011.1 |
| 20260508084603 | 3 | 0 | 0.0 | 0.0 | 0.00 | 0.00 | 0.00 | 71 | 1011.1 |
| 20260508084403 | 3 | 0 | 0.0 | 0.0 | 0.00 | 0.00 | 0.00 | 71 | 1011.1 |
| 20260508084203 | 3 | 0 | 0.0 | 0.0 | 0.00 | 0.00 | 0.00 | 71 | 1011.1 |
| 20260508084003 | 3 | 0 | 0.0 | 0.0 | 0.00 | 0.00 | 0.00 | 71 | 1011.1 |
| 20260508083803 | 3 | 0 | 0.0 | 0.0 | 0.00 | 0.00 | 0.00 | 70 | 1011.1 |
| 20260508083624 | 3 | 0 | 0.0 | 0.0 | 0.00 | 0.00 | 0.00 | 70 | 1011.1 |
| 20260508083403 | 3 | 0 | 0.0 | 0.0 | 0.00 | 0.00 | 0.00 | 70 | 1011.1 |
| 20260508083203 | 3 | 0 | 0.0 | 0.0 | 0.00 | 0.00 | 0.00 | 69 | 1011.1 |
| 20260508083024 | 3 | 0 | 0.0 | 0.0 | 0.00 | 0.00 | 0.00 | 69 | 1011.1 |
| 20260508082803 | 3 | 0 | 0.0 | 0.0 | 0.00 | 0.00 | 0.00 | 70 | 1011.2 |
| 20260508082603 | 3 | 0 | 0.0 | 0.0 | 0.00 | 0.00 | 0.00 | 70 | 1011.1 |
| 20260508082424 | 3 | 0 | 0.0 | 0.0 | 0.00 | 0.00 | 0.00 | 70 | 1011.1 |
| 20260508082203 | 3 | 0 | 0.0 | 0.0 | 0.00 | 0.00 | 0.00 | 70 | 1011.0 |
| 20260508082003 | 3 | 0 | 0.0 | 0.0 | 0.00 | 0.00 | 0.00 | 70 | 1011.0 |
| 20260508081824 | 3 | 0 | 0.0 | 0.0 | 0.00 | 0.00 | 0.00 | 70 | 1011.0 |
| 20260508081403 | 4 | 0 | 0.0 | 0.0 | 0.00 | 0.00 | 0.00 | 70 | 1011.1 |
| 20260508081203 | 4 | 0 | 0.0 | 0.0 | 0.00 | 0.00 | 0.00 | 70 | 1011.1 |
| 20260508081003 | 4 | 0 | 0.0 | 0.0 | 0.00 | 0.00 | 0.00 | 70 | 1011.1 |
| 20260508080803 | 4 | 0 | 0.0 | 0.0 | 0.00 | 0.00 | 0.00 | 70 | 1011.1 |
| 20260508080603 | 4 | 0 | 0.0 | 0.0 | 0.00 | 0.00 | 0.00 | 70 | 1011.1 |
| 20260508080403 | 4 | 0 | 0.0 | 0.0 | 0.00 | 0.00 | 0.00 | 70 | 1011.1 |
| 20260508080203 | 4 | 0 | 0.0 | 0.0 | 0.00 | 0.00 | 0.00 | 70 | 1011.1 |
| 20260508080003 | 4 | 0 | 0.0 | 0.0 | 0.00 | 0.00 | 0.00 | 70 | 1011.1 |
| 20260508075803 | 4 | 0 | 0.0 | 0.0 | 0.00 | 0.00 | 0.00 | 69 | 1011.1 |
| 20260508075603 | 4 | 0 | 0.0 | 0.0 | 0.00 | 0.00 | 0.00 | 69 | 1011.1 |
| 20260508075403 | 4 | 0 | 0.0 | 0.0 | 0.00 | 0.00 | 0.00 | 69 | 1011.2 |
| 20260508075203 | 4 | 0 | 0.0 | 0.0 | 0.00 | 0.00 | 0.00 | 69 | 1011.2 |
| 20260508075003 | 4 | 0 | 0.0 | 0.0 | 0.00 | 0.00 | 0.00 | 70 | 1011.2 |
| 20260508074803 | 4 | 0 | 0.0 | 0.0 | 0.00 | 0.00 | 0.00 | 70 | 1011.3 |
| 20260508074603 | 4 | 0 | 0.0 | 0.0 | 0.00 | 0.00 | 0.00 | 70 | 1011.3 |
| 20260508074403 | 4 | 0 | 0.0 | 0.0 | 0.00 | 0.00 | 0.00 | 70 | 1011.3 |
| 20260508074203 | 4 | 0 | 0.0 | 0.0 | 0.00 | 0.00 | 0.00 | 70 | 1011.3 |
| 20260508074003 | 4 | 0 | 0.0 | 0.0 | 0.00 | 0.00 | 0.00 | 70 | 1011.3 |
| 20260508073824 | 4 | 0 | 0.0 | 0.0 | 0.00 | 0.00 | 0.00 | 70 | 1011.4 |
| 20260508073624 | 4 | 0 | 0.0 | 0.0 | 0.00 | 0.00 | 0.00 | 70 | 1011.3 |
| 20260508073403 | 4 | 0 | 0.0 | 0.0 | 0.00 | 0.00 | 0.00 | 70 | 1011.4 |
| 20260508073203 | 4 | 0 | 0.0 | 0.0 | 0.00 | 0.00 | 0.00 | 70 | 1011.4 |
| 20260508073003 | 5 | 0 | 0.0 | 0.0 | 0.00 | 0.00 | 0.00 | 70 | 1011.4 |
| 20260508072824 | 5 | 0 | 0.0 | 0.0 | 0.00 | 0.00 | 0.00 | 70 | 1011.4 |
| 20260508072603 | 5 | 0 | 0.0 | 0.0 | 0.00 | 0.00 | 0.00 | 70 | 1011.5 |
| 20260508072403 | 5 | 0 | 0.0 | 0.0 | 0.00 | 0.00 | 0.00 | 70 | 1011.5 |
| 20260508072224 | 5 | 0 | 0.0 | 0.0 | 0.00 | 0.00 | 0.00 | 70 | 1011.5 |
| 20260508072024 | 5 | 0 | 0.0 | 0.0 | 0.00 | 0.00 | 0.00 | 70 | 1011.4 |
| 20260508071803 | 5 | 0 | 0.0 | 0.0 | 0.00 | 0.00 | 0.00 | 70 | 1011.4 |
| 20260508071603 | 5 | 0 | 0.0 | 0.0 | 0.00 | 0.00 | 0.00 | 70 | 1011.5 |
| 20260508071403 | 5 | 0 | 0.0 | 0.0 | 0.00 | 0.00 | 0.00 | 70 | 1011.5 |
| 20260508071203 | 5 | 0 | 0.0 | 0.0 | 0.00 | 0.00 | 0.00 | 70 | 1011.5 |
| 20260508071003 | 5 | 0 | 0.0 | 0.0 | 0.00 | 0.00 | 0.00 | 70 | 1011.5 |
| 20260508070824 | 5 | 0 | 0.0 | 0.0 | 0.00 | 0.00 | 0.00 | 70 | 1011.6 |
| 20260508070603 | 5 | 0 | 0.0 | 0.0 | 0.00 | 0.00 | 0.00 | 70 | 1011.6 |
| 20260508070403 | 5 | 0 | 0.0 | 0.0 | 0.00 | 0.00 | 0.00 | 70 | 1011.6 |
| 20260508070203 | 5 | 0 | 0.0 | 0.0 | 0.00 | 0.00 | 0.00 | 70 | 1011.6 |
| 20260508070003 | 5 | 0 | 0.0 | 0.0 | 0.00 | 0.00 | 0.00 | 70 | 1011.6 |
| 20260508065803 | 5 | 0 | 0.0 | 0.0 | 0.00 | 0.00 | 0.00 | 70 | 1011.6 |
| 20260508065603 | 5 | 0 | 0.0 | 0.0 | 0.00 | 0.00 | 0.00 | 70 | 1011.6 |
| 20260508065403 | 5 | 0 | 0.0 | 0.0 | 0.00 | 0.00 | 0.00 | 70 | 1011.7 |
| 20260508065203 | 5 | 0 | 0.0 | 0.0 | 0.00 | 0.00 | 0.00 | 69 | 1011.7 |
| 20260508065003 | 5 | 0 | 0.0 | 0.0 | 0.00 | 0.00 | 0.00 | 69 | 1011.7 |
| 20260508064803 | 5 | 0 | 0.0 | 0.0 | 0.00 | 0.00 | 0.00 | 69 | 1011.7 |
| 20260508064604 | 5 | 0 | 0.0 | 0.0 | 0.00 | 0.00 | 0.00 | 69 | 1011.7 |
| 20260508064404 | 5 | 0 | 0.0 | 0.0 | 0.00 | 0.00 | 0.00 | 69 | 1011.7 |
| 20260508064203 | 5 | 0 | 0.0 | 0.0 | 0.00 | 0.00 | 0.00 | 69 | 1011.7 |
| 20260508064003 | 5 | 0 | 0.0 | 0.0 | 0.00 | 0.00 | 0.00 | 69 | 1011.7 |
| 20260508063803 | 5 | 0 | 0.0 | 0.0 | 0.00 | 0.00 | 0.00 | 69 | 1011.7 |
| 20260508063603 | 5 | 0 | 0.0 | 0.0 | 0.00 | 0.00 | 0.00 | 69 | 1011.8 |
| 20260508063424 | 5 | 0 | 0.0 | 0.0 | 0.00 | 0.00 | 0.00 | 69 | 1011.7 |
| 20260508063203 | 5 | 0 | 0.0 | 0.0 | 0.00 | 0.00 | 0.00 | 68 | 1011.7 |
| 20260508063003 | 5 | 0 | 0.0 | 0.0 | 0.00 | 0.00 | 0.00 | 68 | 1011.7 |
| 20260508062803 | 5 | 0 | 0.0 | 0.0 | 0.00 | 0.00 | 0.00 | 68 | 1011.7 |
| 20260508062603 | 5 | 0 | 0.0 | 0.0 | 0.00 | 0.00 | 0.00 | 68 | 1011.7 |
| 20260508062403 | 5 | 0 | 0.0 | 0.0 | 0.00 | 0.00 | 0.00 | 67 | 1011.7 |
| 20260508062224 | 5 | 0 | 0.0 | 0.0 | 0.00 | 0.00 | 0.00 | 67 | 1011.7 |
| 20260508062003 | 5 | 0 | 0.0 | 0.0 | 0.00 | 0.00 | 0.00 | 67 | 1011.7 |
| 20260508061803 | 5 | 0 | 0.0 | 0.0 | 0.00 | 0.00 | 0.00 | 67 | 1011.6 |
| 20260508061603 | 5 | 0 | 0.0 | 0.0 | 0.00 | 0.00 | 0.00 | 67 | 1011.6 |
| 20260508061403 | 5 | 0 | 0.0 | 0.0 | 0.00 | 0.00 | 0.00 | 66 | 1011.7 |
| 20260508061203 | 5 | 0 | 0.0 | 0.0 | 0.00 | 0.00 | 0.00 | 66 | 1011.7 |
| 20260508061003 | 5 | 0 | 0.0 | 0.0 | 0.00 | 0.00 | 0.00 | 66 | 1011.7 |
| 20260508060803 | 5 | 0 | 0.0 | 0.0 | 0.00 | 0.00 | 0.00 | 66 | 1011.8 |
| 20260508060603 | 5 | 0 | 0.0 | 0.0 | 0.00 | 0.00 | 0.00 | 66 | 1011.7 |
| 20260508060424 | 5 | 0 | 0.0 | 0.0 | 0.00 | 0.00 | 0.00 | 66 | 1011.8 |
| 20260508060224 | 5 | 0 | 0.0 | 0.0 | 0.00 | 0.00 | 0.00 | 66 | 1011.8 |
| 20260508060003 | 5 | 0 | 0.0 | 0.0 | 0.00 | 0.00 | 0.00 | 65 | 1011.8 |
| 20260508055803 | 5 | 0 | 0.0 | 0.0 | 0.00 | 0.00 | 0.00 | 65 | 1011.8 |
| 20260508055603 | 6 | 0 | 0.0 | 0.0 | 0.00 | 0.00 | 0.00 | 65 | 1011.8 |
| 20260508055403 | 6 | 0 | 0.0 | 0.0 | 0.00 | 0.00 | 0.00 | 65 | 1011.7 |
| 20260508055203 | 6 | 0 | 0.0 | 0.0 | 0.00 | 0.00 | 0.00 | 65 | 1011.8 |
| 20260508055003 | 6 | 0 | 0.0 | 0.0 | 0.00 | 0.00 | 0.00 | 65 | 1011.8 |
| 20260508054824 | 6 | 0 | 0.0 | 0.0 | 0.00 | 0.00 | 0.00 | 65 | 1011.8 |
| 20260508054603 | 6 | 0 | 0.0 | 0.0 | 0.00 | 0.00 | 0.00 | 65 | 1011.7 |
| 20260508054403 | 6 | 0 | 0.0 | 0.0 | 0.00 | 0.00 | 0.00 | 65 | 1011.8 |
| 20260508054203 | 6 | 0 | 0.0 | 0.0 | 0.00 | 0.00 | 0.00 | 65 | 1011.7 |
| 20260508054003 | 6 | 0 | 0.0 | 0.0 | 0.00 | 0.00 | 0.00 | 65 | 1011.7 |
| 20260508053803 | 6 | 0 | 0.0 | 0.0 | 0.00 | 0.00 | 0.00 | 65 | 1011.7 |
| 20260508053603 | 6 | 0 | 0.0 | 0.0 | 0.00 | 0.00 | 0.00 | 65 | 1011.7 |
| 20260508053403 | 6 | 0 | 0.0 | 0.0 | 0.00 | 0.00 | 0.00 | 64 | 1011.7 |
| 20260508053203 | 6 | 0 | 0.0 | 0.0 | 0.00 | 0.00 | 0.00 | 65 | 1011.6 |
| 20260508053003 | 6 | 0 | 0.0 | 0.0 | 0.00 | 0.00 | 0.00 | 65 | 1011.6 |
| 20260508052803 | 6 | 0 | 0.0 | 0.0 | 0.00 | 0.00 | 0.00 | 65 | 1011.6 |
| 20260508052603 | 6 | 0 | 0.0 | 0.0 | 0.00 | 0.00 | 0.00 | 65 | 1011.6 |
| 20260508052403 | 6 | 0 | 0.0 | 0.0 | 0.00 | 0.00 | 0.00 | 65 | 1011.6 |
| 20260508052203 | 6 | 0 | 0.0 | 0.0 | 0.00 | 0.00 | 0.00 | 65 | 1011.6 |
| 20260508052003 | 6 | 0 | 0.0 | 0.0 | 0.00 | 0.00 | 0.00 | 65 | 1011.6 |
| 20260508051803 | 6 | 0 | 0.0 | 0.0 | 0.00 | 0.00 | 0.00 | 66 | 1011.6 |
| 20260508051603 | 6 | 0 | 0.0 | 0.0 | 0.00 | 0.00 | 0.00 | 65 | 1011.6 |
| 20260508051403 | 6 | 0 | 0.0 | 0.0 | 0.00 | 0.00 | 0.00 | 65 | 1011.6 |
| 20260508051224 | 6 | 0 | 0.0 | 0.0 | 0.00 | 0.00 | 0.00 | 65 | 1011.5 |
| 20260508051003 | 6 | 0 | 0.0 | 0.0 | 0.00 | 0.00 | 0.00 | 65 | 1011.6 |
| 20260508050803 | 6 | 0 | 0.0 | 0.0 | 0.00 | 0.00 | 0.00 | 65 | 1011.6 |
| 20260508050603 | 6 | 0 | 0.0 | 0.0 | 0.00 | 0.00 | 0.00 | 65 | 1011.6 |
| 20260508050403 | 6 | 0 | 0.0 | 0.0 | 0.00 | 0.00 | 0.00 | 65 | 1011.6 |
| 20260508050203 | 6 | 0 | 0.0 | 0.0 | 0.00 | 0.00 | 0.00 | 65 | 1011.6 |
| 20260508050003 | 6 | 0 | 0.0 | 0.0 | 0.00 | 0.00 | 0.00 | 65 | 1011.5 |
| 20260508045803 | 6 | 0 | 0.0 | 0.0 | 0.00 | 0.00 | 0.00 | 65 | 1011.6 |
| 20260508045603 | 6 | 0 | 0.0 | 0.0 | 0.00 | 0.00 | 0.00 | 65 | 1011.6 |
| 20260508045424 | 6 | 0 | 0.0 | 0.0 | 0.00 | 0.00 | 0.00 | 65 | 1011.5 |
| 20260508045203 | 6 | 0 | 0.0 | 0.0 | 0.00 | 0.00 | 0.00 | 65 | 1011.5 |
| 20260508045003 | 6 | 0 | 0.0 | 0.0 | 0.00 | 0.00 | 0.00 | 65 | 1011.5 |
| 20260508044803 | 6 | 0 | 0.0 | 0.0 | 0.00 | 0.00 | 0.00 | 65 | 1011.6 |
| 20260508044603 | 6 | 0 | 0.0 | 0.0 | 0.00 | 0.00 | 0.00 | 65 | 1011.6 |
| 20260508044403 | 6 | 0 | 0.0 | 0.0 | 0.00 | 0.00 | 0.00 | 65 | 1011.6 |
| 20260508044203 | 6 | 0 | 0.0 | 0.0 | 0.00 | 0.00 | 0.00 | 64 | 1011.5 |
| 20260508044003 | 6 | 0 | 0.0 | 0.0 | 0.00 | 0.00 | 0.00 | 64 | 1011.5 |
| 20260508043803 | 6 | 0 | 0.0 | 0.0 | 0.00 | 0.00 | 0.00 | 65 | 1011.5 |
| 20260508043603 | 6 | 0 | 0.0 | 0.0 | 0.00 | 0.00 | 0.00 | 65 | 1011.5 |
| 20260508043403 | 6 | 0 | 0.0 | 0.0 | 0.00 | 0.00 | 0.00 | 65 | 1011.5 |
| 20260508043203 | 6 | 0 | 0.0 | 0.0 | 0.00 | 0.00 | 0.00 | 65 | 1011.5 |
| 20260508043003 | 6 | 0 | 0.0 | 0.0 | 0.00 | 0.00 | 0.00 | 65 | 1011.5 |
| 20260508042803 | 6 | 0 | 0.0 | 0.0 | 0.00 | 0.00 | 0.00 | 65 | 1011.5 |
| 20260508042603 | 6 | 0 | 0.0 | 0.0 | 0.00 | 0.00 | 0.00 | 65 | 1011.5 |
| 20260508042403 | 6 | 0 | 0.0 | 0.0 | 0.00 | 0.00 | 0.00 | 65 | 1011.5 |
| 20260508042224 | 6 | 0 | 0.0 | 0.0 | 0.00 | 0.00 | 0.00 | 64 | 1011.5 |
| 20260508042003 | 6 | 0 | 0.0 | 0.0 | 0.00 | 0.00 | 0.00 | 64 | 1011.4 |
| 20260508041803 | 6 | 0 | 0.0 | 0.0 | 0.00 | 0.00 | 0.00 | 64 | 1011.5 |
| 20260508041603 | 7 | 0 | 0.0 | 0.0 | 0.00 | 0.00 | 0.00 | 64 | 1011.5 |
| 20260508041403 | 7 | 0 | 0.0 | 0.0 | 0.00 | 0.00 | 0.00 | 64 | 1011.5 |
| 20260508041203 | 7 | 0 | 0.0 | 0.0 | 0.00 | 0.00 | 0.00 | 64 | 1011.5 |
| 20260508041003 | 7 | 0 | 0.0 | 0.0 | 0.00 | 0.00 | 0.00 | 64 | 1011.4 |
| 20260508040803 | 7 | 0 | 0.0 | 0.0 | 0.00 | 0.00 | 0.00 | 64 | 1011.4 |
| 20260508040603 | 7 | 0 | 0.0 | 0.0 | 0.00 | 0.00 | 0.00 | 64 | 1011.4 |
| 20260508040403 | 7 | 0 | 0.0 | 0.0 | 0.00 | 0.00 | 0.00 | 64 | 1011.4 |
| 20260508040203 | 7 | 0 | 0.0 | 0.0 | 0.00 | 0.00 | 0.00 | 64 | 1011.4 |
| 20260508040003 | 7 | 0 | 0.0 | 0.0 | 0.00 | 0.00 | 0.00 | 64 | 1011.5 |
| 20260508035803 | 7 | 0 | 0.0 | 0.0 | 0.00 | 0.00 | 0.00 | 64 | 1011.5 |
| 20260508035624 | 7 | 0 | 0.0 | 0.0 | 0.00 | 0.00 | 0.00 | 64 | 1011.5 |
| 20260508035403 | 7 | 0 | 0.0 | 0.0 | 0.00 | 0.00 | 0.00 | 64 | 1011.4 |
| 20260508035203 | 7 | 0 | 0.0 | 0.0 | 0.00 | 0.00 | 0.00 | 64 | 1011.4 |
| 20260508035003 | 7 | 0 | 0.0 | 0.0 | 0.00 | 0.00 | 0.00 | 64 | 1011.4 |
| 20260508034824 | 7 | 0 | 0.0 | 0.0 | 0.00 | 0.00 | 0.00 | 64 | 1011.4 |
| 20260508034603 | 7 | 0 | 0.0 | 0.0 | 0.00 | 0.00 | 0.00 | 64 | 1011.4 |
| 20260508034403 | 7 | 0 | 0.0 | 0.0 | 0.00 | 0.00 | 0.00 | 64 | 1011.3 |
| 20260508034203 | 7 | 0 | 0.0 | 0.0 | 0.00 | 0.00 | 0.00 | 64 | 1011.3 |
| 20260508034003 | 7 | 0 | 0.0 | 0.0 | 0.00 | 0.00 | 0.00 | 64 | 1011.4 |
| 20260508033803 | 7 | 0 | 0.0 | 0.0 | 0.00 | 0.00 | 0.00 | 64 | 1011.4 |
| 20260508033603 | 7 | 0 | 0.0 | 0.0 | 0.00 | 0.00 | 0.00 | 64 | 1011.4 |
| 20260508033403 | 7 | 0 | 0.0 | 0.0 | 0.00 | 0.00 | 0.00 | 64 | 1011.4 |
| 20260508033203 | 7 | 0 | 0.0 | 0.0 | 0.00 | 0.00 | 0.00 | 63 | 1011.4 |
| 20260508033003 | 7 | 0 | 0.0 | 0.0 | 0.00 | 0.00 | 0.00 | 63 | 1011.4 |
| 20260508032803 | 7 | 0 | 0.0 | 0.0 | 0.00 | 0.00 | 0.00 | 64 | 1011.4 |